<?xml version="1.0" encoding="UTF-8" standalone="no" ?>
<gpx xmlns="http://www.topografix.com/GPX/1/1" xmlns:xsi="http://www.w3.org/2001/XMLSchema-instance" xsi:schemaLocation="http://www.topografix.com/GPX/1/1 http://www.topografix.com/GPX/1/1/gpx.xsd" version="1.1" creator="VisuGPX - https://www.visugpx.com">
  <metadata>
    <name>Perigneux ( Biaud ) 24km</name>
    <desc><![CDATA[fait le 28/04/2024 - départ d'un lieu privé]]></desc>
  </metadata>
  <trk>
    <name><![CDATA[2024-04-28 18:00:40]]></name>
    <extensions>
      <line xmlns="http://www.topografix.com/GPX/gpx_style/0/2">
        <color>0000FF</color>
        <width>4</width>
      </line>
    </extensions>
    <trkseg>
      <trkpt lat="45.44568" lon="4.13079">
        <ele>636.05</ele>
        <time>2024-04-28T11:50:11Z</time>
        <extensions>
          <visugpx:TrkExtension xmlns:visugpx="https://www.visugpx.com/editgpx/">
            <visugpx:node>1</visugpx:node>
            </visugpx:TrkExtension>
        </extensions>
      </trkpt>
      <trkpt lat="45.44571" lon="4.13075">
        <ele>636.05</ele>
        <time>2024-04-28T11:50:01Z</time>
      </trkpt>
      <trkpt lat="45.4457" lon="4.13074">
        <ele>635.09</ele>
        <time>2024-04-28T11:49:47Z</time>
      </trkpt>
      <trkpt lat="45.44571" lon="4.13076">
        <ele>633.65</ele>
        <time>2024-04-28T11:49:32Z</time>
      </trkpt>
      <trkpt lat="45.44572" lon="4.13073">
        <ele>634.13</ele>
        <time>2024-04-28T11:49:13Z</time>
      </trkpt>
      <trkpt lat="45.44571" lon="4.13074">
        <ele>632.68</ele>
        <time>2024-04-28T11:48:48Z</time>
      </trkpt>
      <trkpt lat="45.44569" lon="4.13072">
        <ele>632.68</ele>
        <time>2024-04-28T11:48:38Z</time>
      </trkpt>
      <trkpt lat="45.44571" lon="4.13069">
        <ele>635.09</ele>
        <time>2024-04-28T11:48:24Z</time>
      </trkpt>
      <trkpt lat="45.44579" lon="4.13061">
        <ele>639.41</ele>
        <time>2024-04-28T11:48:11Z</time>
      </trkpt>
      <trkpt lat="45.44584" lon="4.13065">
        <ele>635.09</ele>
        <time>2024-04-28T11:47:55Z</time>
      </trkpt>
      <trkpt lat="45.44574" lon="4.13072">
        <ele>631.24</ele>
        <time>2024-04-28T11:47:40Z</time>
      </trkpt>
      <trkpt lat="45.4457" lon="4.13077">
        <ele>631.24</ele>
        <time>2024-04-28T11:47:27Z</time>
      </trkpt>
      <trkpt lat="45.44571" lon="4.13078">
        <ele>634.61</ele>
        <time>2024-04-28T11:47:17Z</time>
      </trkpt>
      <trkpt lat="45.4457" lon="4.13077">
        <ele>634.13</ele>
        <time>2024-04-28T11:46:59Z</time>
      </trkpt>
      <trkpt lat="45.44572" lon="4.13076">
        <ele>630.76</ele>
        <time>2024-04-28T11:46:40Z</time>
      </trkpt>
      <trkpt lat="45.44573" lon="4.13076">
        <ele>631.24</ele>
        <time>2024-04-28T11:46:25Z</time>
      </trkpt>
      <trkpt lat="45.44572" lon="4.13076">
        <ele>631.72</ele>
        <time>2024-04-28T11:46:10Z</time>
      </trkpt>
      <trkpt lat="45.44572" lon="4.13073">
        <ele>632.2</ele>
        <time>2024-04-28T11:45:55Z</time>
      </trkpt>
      <trkpt lat="45.44571" lon="4.13077">
        <ele>632.68</ele>
        <time>2024-04-28T11:45:43Z</time>
      </trkpt>
      <trkpt lat="45.44569" lon="4.13083">
        <ele>633.17</ele>
        <time>2024-04-28T11:45:29Z</time>
      </trkpt>
      <trkpt lat="45.44562" lon="4.13095">
        <ele>633.65</ele>
        <time>2024-04-28T11:45:15Z</time>
      </trkpt>
      <trkpt lat="45.44559" lon="4.13101">
        <ele>633.65</ele>
        <time>2024-04-28T11:45:03Z</time>
      </trkpt>
      <trkpt lat="45.4456" lon="4.13104">
        <ele>634.13</ele>
        <time>2024-04-28T11:44:35Z</time>
      </trkpt>
      <trkpt lat="45.44573" lon="4.13119">
        <ele>635.57</ele>
        <time>2024-04-28T11:44:19Z</time>
      </trkpt>
      <trkpt lat="45.44589" lon="4.13093">
        <ele>637.01</ele>
        <time>2024-04-28T11:44:01Z</time>
      </trkpt>
      <trkpt lat="45.44601" lon="4.13055">
        <ele>637.49</ele>
        <time>2024-04-28T11:43:40Z</time>
      </trkpt>
      <trkpt lat="45.44613" lon="4.13024">
        <ele>633.17</ele>
        <time>2024-04-28T11:43:24Z</time>
      </trkpt>
      <trkpt lat="45.44623" lon="4.12981">
        <ele>638.93</ele>
        <time>2024-04-28T11:43:02Z</time>
      </trkpt>
      <trkpt lat="45.44633" lon="4.1294">
        <ele>640.86</ele>
        <time>2024-04-28T11:42:40Z</time>
      </trkpt>
      <trkpt lat="45.44639" lon="4.12903">
        <ele>642.3</ele>
        <time>2024-04-28T11:42:22Z</time>
      </trkpt>
      <trkpt lat="45.44639" lon="4.12901">
        <ele>642.3</ele>
        <time>2024-04-28T11:42:21Z</time>
      </trkpt>
      <trkpt lat="45.44639" lon="4.12899">
        <ele>642.3</ele>
        <time>2024-04-28T11:42:20Z</time>
      </trkpt>
      <trkpt lat="45.44639" lon="4.12898">
        <ele>642.78</ele>
        <time>2024-04-28T11:42:19Z</time>
      </trkpt>
      <trkpt lat="45.44638" lon="4.12896">
        <ele>642.78</ele>
        <time>2024-04-28T11:42:18Z</time>
      </trkpt>
      <trkpt lat="45.44637" lon="4.12894">
        <ele>643.26</ele>
        <time>2024-04-28T11:42:17Z</time>
      </trkpt>
      <trkpt lat="45.44629" lon="4.1289">
        <ele>644.7</ele>
        <time>2024-04-28T11:42:13Z</time>
      </trkpt>
      <trkpt lat="45.44589" lon="4.12867">
        <ele>646.14</ele>
        <time>2024-04-28T11:42:00Z</time>
      </trkpt>
      <trkpt lat="45.44552" lon="4.12841">
        <ele>646.14</ele>
        <time>2024-04-28T11:41:36Z</time>
      </trkpt>
      <trkpt lat="45.44512" lon="4.12813">
        <ele>647.1</ele>
        <time>2024-04-28T11:41:07Z</time>
      </trkpt>
      <trkpt lat="45.44479" lon="4.12775">
        <ele>645.18</ele>
        <time>2024-04-28T11:40:40Z</time>
      </trkpt>
      <trkpt lat="45.44448" lon="4.12737">
        <ele>645.18</ele>
        <time>2024-04-28T11:40:12Z</time>
      </trkpt>
      <trkpt lat="45.44424" lon="4.12702">
        <ele>645.18</ele>
        <time>2024-04-28T11:39:47Z</time>
      </trkpt>
      <trkpt lat="45.44406" lon="4.12671">
        <ele>646.14</ele>
        <time>2024-04-28T11:39:32Z</time>
      </trkpt>
      <trkpt lat="45.44384" lon="4.12627">
        <ele>646.62</ele>
        <time>2024-04-28T11:39:19Z</time>
      </trkpt>
      <trkpt lat="45.44361" lon="4.1258">
        <ele>646.62</ele>
        <time>2024-04-28T11:38:53Z</time>
      </trkpt>
      <trkpt lat="45.44346" lon="4.12542">
        <ele>647.59</ele>
        <time>2024-04-28T11:38:31Z</time>
      </trkpt>
      <trkpt lat="45.44337" lon="4.12514">
        <ele>648.07</ele>
        <time>2024-04-28T11:38:18Z</time>
      </trkpt>
      <trkpt lat="45.44322" lon="4.12471">
        <ele>648.55</ele>
        <time>2024-04-28T11:38:03Z</time>
      </trkpt>
      <trkpt lat="45.44302" lon="4.12428">
        <ele>650.47</ele>
        <time>2024-04-28T11:37:39Z</time>
      </trkpt>
      <trkpt lat="45.44274" lon="4.12373">
        <ele>650.47</ele>
        <time>2024-04-28T11:37:21Z</time>
      </trkpt>
      <trkpt lat="45.44246" lon="4.12325">
        <ele>649.51</ele>
        <time>2024-04-28T11:37:03Z</time>
      </trkpt>
      <trkpt lat="45.44213" lon="4.12276">
        <ele>649.51</ele>
        <time>2024-04-28T11:36:33Z</time>
      </trkpt>
      <trkpt lat="45.44178" lon="4.12235">
        <ele>646.62</ele>
        <time>2024-04-28T11:36:04Z</time>
      </trkpt>
      <trkpt lat="45.44147" lon="4.12192">
        <ele>644.7</ele>
        <time>2024-04-28T11:35:34Z</time>
      </trkpt>
      <trkpt lat="45.44113" lon="4.12155">
        <ele>639.41</ele>
        <time>2024-04-28T11:35:04Z</time>
      </trkpt>
      <trkpt lat="45.44083" lon="4.12127">
        <ele>637.49</ele>
        <time>2024-04-28T11:34:39Z</time>
      </trkpt>
      <trkpt lat="45.44043" lon="4.12097">
        <ele>637.49</ele>
        <time>2024-04-28T11:34:12Z</time>
      </trkpt>
      <trkpt lat="45.44009" lon="4.12083">
        <ele>636.53</ele>
        <time>2024-04-28T11:33:52Z</time>
      </trkpt>
      <trkpt lat="45.43977" lon="4.12061">
        <ele>635.57</ele>
        <time>2024-04-28T11:33:30Z</time>
      </trkpt>
      <trkpt lat="45.43954" lon="4.12019">
        <ele>636.05</ele>
        <time>2024-04-28T11:33:07Z</time>
      </trkpt>
      <trkpt lat="45.43938" lon="4.11976">
        <ele>635.57</ele>
        <time>2024-04-28T11:32:48Z</time>
      </trkpt>
      <trkpt lat="45.43918" lon="4.11934">
        <ele>634.61</ele>
        <time>2024-04-28T11:32:27Z</time>
      </trkpt>
      <trkpt lat="45.43895" lon="4.11885">
        <ele>634.13</ele>
        <time>2024-04-28T11:32:02Z</time>
      </trkpt>
      <trkpt lat="45.43874" lon="4.11847">
        <ele>632.2</ele>
        <time>2024-04-28T11:31:45Z</time>
      </trkpt>
      <trkpt lat="45.43834" lon="4.11805">
        <ele>630.28</ele>
        <time>2024-04-28T11:31:19Z</time>
      </trkpt>
      <trkpt lat="45.438" lon="4.11784">
        <ele>631.72</ele>
        <time>2024-04-28T11:30:57Z</time>
      </trkpt>
      <trkpt lat="45.43771" lon="4.11757">
        <ele>633.17</ele>
        <time>2024-04-28T11:30:33Z</time>
      </trkpt>
      <trkpt lat="45.43744" lon="4.11729">
        <ele>635.09</ele>
        <time>2024-04-28T11:30:15Z</time>
      </trkpt>
      <trkpt lat="45.43725" lon="4.11695">
        <ele>635.57</ele>
        <time>2024-04-28T11:29:55Z</time>
      </trkpt>
      <trkpt lat="45.43714" lon="4.11661">
        <ele>636.53</ele>
        <time>2024-04-28T11:29:37Z</time>
      </trkpt>
      <trkpt lat="45.43707" lon="4.11633">
        <ele>635.09</ele>
        <time>2024-04-28T11:29:21Z</time>
      </trkpt>
      <trkpt lat="45.43688" lon="4.11616">
        <ele>632.2</ele>
        <time>2024-04-28T11:29:05Z</time>
      </trkpt>
      <trkpt lat="45.43661" lon="4.11592">
        <ele>627.88</ele>
        <time>2024-04-28T11:28:44Z</time>
      </trkpt>
      <trkpt lat="45.43627" lon="4.1157">
        <ele>624.03</ele>
        <time>2024-04-28T11:28:22Z</time>
      </trkpt>
      <trkpt lat="45.43603" lon="4.11557">
        <ele>617.78</ele>
        <time>2024-04-28T11:28:04Z</time>
      </trkpt>
      <trkpt lat="45.43579" lon="4.11543">
        <ele>614.9</ele>
        <time>2024-04-28T11:27:49Z</time>
      </trkpt>
      <trkpt lat="45.43555" lon="4.1153">
        <ele>611.06</ele>
        <time>2024-04-28T11:27:31Z</time>
      </trkpt>
      <trkpt lat="45.43549" lon="4.11527">
        <ele>610.09</ele>
        <time>2024-04-28T11:27:27Z</time>
      </trkpt>
      <trkpt lat="45.43521" lon="4.11506">
        <ele>607.69</ele>
        <time>2024-04-28T11:27:08Z</time>
      </trkpt>
      <trkpt lat="45.43498" lon="4.11472">
        <ele>607.21</ele>
        <time>2024-04-28T11:26:46Z</time>
      </trkpt>
      <trkpt lat="45.43491" lon="4.11469">
        <ele>607.21</ele>
        <time>2024-04-28T11:26:38Z</time>
      </trkpt>
      <trkpt lat="45.43498" lon="4.1145">
        <ele>605.29</ele>
        <time>2024-04-28T11:26:20Z</time>
      </trkpt>
      <trkpt lat="45.43495" lon="4.11421">
        <ele>606.25</ele>
        <time>2024-04-28T11:26:08Z</time>
      </trkpt>
      <trkpt lat="45.43461" lon="4.1137">
        <ele>604.81</ele>
        <time>2024-04-28T11:25:55Z</time>
      </trkpt>
      <trkpt lat="45.4346" lon="4.11367">
        <ele>604.81</ele>
        <time>2024-04-28T11:25:54Z</time>
      </trkpt>
      <trkpt lat="45.43459" lon="4.11364">
        <ele>604.81</ele>
        <time>2024-04-28T11:25:53Z</time>
      </trkpt>
      <trkpt lat="45.43459" lon="4.11361">
        <ele>604.81</ele>
        <time>2024-04-28T11:25:52Z</time>
      </trkpt>
      <trkpt lat="45.43459" lon="4.11359">
        <ele>604.81</ele>
        <time>2024-04-28T11:25:51Z</time>
      </trkpt>
      <trkpt lat="45.43462" lon="4.11351">
        <ele>605.29</ele>
        <time>2024-04-28T11:25:47Z</time>
      </trkpt>
      <trkpt lat="45.43492" lon="4.11329">
        <ele>607.69</ele>
        <time>2024-04-28T11:25:30Z</time>
      </trkpt>
      <trkpt lat="45.43506" lon="4.11299">
        <ele>612.02</ele>
        <time>2024-04-28T11:25:14Z</time>
      </trkpt>
      <trkpt lat="45.4351" lon="4.11256">
        <ele>614.9</ele>
        <time>2024-04-28T11:24:54Z</time>
      </trkpt>
      <trkpt lat="45.43496" lon="4.11219">
        <ele>615.38</ele>
        <time>2024-04-28T11:24:35Z</time>
      </trkpt>
      <trkpt lat="45.43476" lon="4.11186">
        <ele>613.46</ele>
        <time>2024-04-28T11:24:15Z</time>
      </trkpt>
      <trkpt lat="45.43457" lon="4.1115">
        <ele>611.06</ele>
        <time>2024-04-28T11:23:54Z</time>
      </trkpt>
      <trkpt lat="45.43444" lon="4.11117">
        <ele>608.65</ele>
        <time>2024-04-28T11:23:35Z</time>
      </trkpt>
      <trkpt lat="45.43436" lon="4.11083">
        <ele>606.73</ele>
        <time>2024-04-28T11:23:17Z</time>
      </trkpt>
      <trkpt lat="45.43428" lon="4.1105">
        <ele>605.29</ele>
        <time>2024-04-28T11:22:59Z</time>
      </trkpt>
      <trkpt lat="45.43413" lon="4.11039">
        <ele>601.44</ele>
        <time>2024-04-28T11:22:47Z</time>
      </trkpt>
      <trkpt lat="45.43386" lon="4.1102">
        <ele>598.56</ele>
        <time>2024-04-28T11:22:28Z</time>
      </trkpt>
      <trkpt lat="45.43361" lon="4.10999">
        <ele>599.52</ele>
        <time>2024-04-28T11:22:07Z</time>
      </trkpt>
      <trkpt lat="45.43344" lon="4.10993">
        <ele>599.04</ele>
        <time>2024-04-28T11:21:50Z</time>
      </trkpt>
      <trkpt lat="45.43321" lon="4.10992">
        <ele>599.04</ele>
        <time>2024-04-28T11:21:34Z</time>
      </trkpt>
      <trkpt lat="45.43296" lon="4.10983">
        <ele>600.96</ele>
        <time>2024-04-28T11:21:14Z</time>
      </trkpt>
      <trkpt lat="45.43295" lon="4.10982">
        <ele>600.96</ele>
        <time>2024-04-28T11:21:13Z</time>
      </trkpt>
      <trkpt lat="45.43293" lon="4.10981">
        <ele>601.44</ele>
        <time>2024-04-28T11:21:12Z</time>
      </trkpt>
      <trkpt lat="45.43292" lon="4.10981">
        <ele>601.92</ele>
        <time>2024-04-28T11:21:11Z</time>
      </trkpt>
      <trkpt lat="45.43291" lon="4.1098">
        <ele>602.4</ele>
        <time>2024-04-28T11:21:10Z</time>
      </trkpt>
      <trkpt lat="45.43286" lon="4.10968">
        <ele>604.81</ele>
        <time>2024-04-28T11:21:02Z</time>
      </trkpt>
      <trkpt lat="45.43296" lon="4.1093">
        <ele>610.09</ele>
        <time>2024-04-28T11:20:42Z</time>
      </trkpt>
      <trkpt lat="45.43299" lon="4.10906">
        <ele>613.46</ele>
        <time>2024-04-28T11:20:29Z</time>
      </trkpt>
      <trkpt lat="45.43292" lon="4.10865">
        <ele>619.71</ele>
        <time>2024-04-28T11:20:06Z</time>
      </trkpt>
      <trkpt lat="45.43287" lon="4.10818">
        <ele>623.07</ele>
        <time>2024-04-28T11:19:44Z</time>
      </trkpt>
      <trkpt lat="45.43284" lon="4.10807">
        <ele>624.51</ele>
        <time>2024-04-28T11:19:38Z</time>
      </trkpt>
      <trkpt lat="45.43272" lon="4.10758">
        <ele>629.8</ele>
        <time>2024-04-28T11:19:15Z</time>
      </trkpt>
      <trkpt lat="45.43261" lon="4.10715">
        <ele>629.8</ele>
        <time>2024-04-28T11:18:56Z</time>
      </trkpt>
      <trkpt lat="45.4325" lon="4.10682">
        <ele>633.17</ele>
        <time>2024-04-28T11:18:40Z</time>
      </trkpt>
      <trkpt lat="45.43228" lon="4.10653">
        <ele>636.05</ele>
        <time>2024-04-28T11:18:21Z</time>
      </trkpt>
      <trkpt lat="45.43207" lon="4.10619">
        <ele>638.93</ele>
        <time>2024-04-28T11:18:01Z</time>
      </trkpt>
      <trkpt lat="45.43193" lon="4.10583">
        <ele>641.34</ele>
        <time>2024-04-28T11:17:42Z</time>
      </trkpt>
      <trkpt lat="45.43193" lon="4.10581">
        <ele>641.34</ele>
        <time>2024-04-28T11:17:41Z</time>
      </trkpt>
      <trkpt lat="45.43187" lon="4.10564">
        <ele>642.3</ele>
        <time>2024-04-28T11:17:32Z</time>
      </trkpt>
      <trkpt lat="45.43169" lon="4.10528">
        <ele>645.18</ele>
        <time>2024-04-28T11:17:13Z</time>
      </trkpt>
      <trkpt lat="45.4315" lon="4.10488">
        <ele>649.51</ele>
        <time>2024-04-28T11:16:51Z</time>
      </trkpt>
      <trkpt lat="45.43131" lon="4.10448">
        <ele>654.31</ele>
        <time>2024-04-28T11:16:31Z</time>
      </trkpt>
      <trkpt lat="45.43113" lon="4.10417">
        <ele>656.24</ele>
        <time>2024-04-28T11:16:14Z</time>
      </trkpt>
      <trkpt lat="45.43103" lon="4.10388">
        <ele>658.16</ele>
        <time>2024-04-28T11:15:58Z</time>
      </trkpt>
      <trkpt lat="45.43093" lon="4.1037">
        <ele>659.12</ele>
        <time>2024-04-28T11:15:48Z</time>
      </trkpt>
      <trkpt lat="45.43073" lon="4.10336">
        <ele>660.56</ele>
        <time>2024-04-28T11:15:30Z</time>
      </trkpt>
      <trkpt lat="45.43052" lon="4.10303">
        <ele>662.49</ele>
        <time>2024-04-28T11:15:10Z</time>
      </trkpt>
      <trkpt lat="45.43029" lon="4.10266">
        <ele>666.33</ele>
        <time>2024-04-28T11:14:50Z</time>
      </trkpt>
      <trkpt lat="45.4301" lon="4.10234">
        <ele>668.73</ele>
        <time>2024-04-28T11:14:29Z</time>
      </trkpt>
      <trkpt lat="45.42993" lon="4.10201">
        <ele>668.73</ele>
        <time>2024-04-28T11:14:08Z</time>
      </trkpt>
      <trkpt lat="45.42973" lon="4.10164">
        <ele>670.66</ele>
        <time>2024-04-28T11:13:47Z</time>
      </trkpt>
      <trkpt lat="45.42947" lon="4.10123">
        <ele>672.1</ele>
        <time>2024-04-28T11:13:23Z</time>
      </trkpt>
      <trkpt lat="45.42925" lon="4.10096">
        <ele>672.1</ele>
        <time>2024-04-28T11:13:08Z</time>
      </trkpt>
      <trkpt lat="45.42923" lon="4.10094">
        <ele>672.1</ele>
        <time>2024-04-28T11:13:07Z</time>
      </trkpt>
      <trkpt lat="45.42922" lon="4.10091">
        <ele>672.1</ele>
        <time>2024-04-28T11:13:06Z</time>
      </trkpt>
      <trkpt lat="45.42918" lon="4.10085">
        <ele>672.58</ele>
        <time>2024-04-28T11:13:02Z</time>
      </trkpt>
      <trkpt lat="45.42902" lon="4.10065">
        <ele>674.5</ele>
        <time>2024-04-28T11:12:46Z</time>
      </trkpt>
      <trkpt lat="45.42883" lon="4.10045">
        <ele>678.83</ele>
        <time>2024-04-28T11:12:28Z</time>
      </trkpt>
      <trkpt lat="45.42861" lon="4.10025">
        <ele>680.27</ele>
        <time>2024-04-28T11:12:08Z</time>
      </trkpt>
      <trkpt lat="45.42838" lon="4.10003">
        <ele>685.56</ele>
        <time>2024-04-28T11:11:49Z</time>
      </trkpt>
      <trkpt lat="45.4282" lon="4.09989">
        <ele>688.44</ele>
        <time>2024-04-28T11:11:31Z</time>
      </trkpt>
      <trkpt lat="45.42795" lon="4.09963">
        <ele>694.21</ele>
        <time>2024-04-28T11:11:06Z</time>
      </trkpt>
      <trkpt lat="45.4279" lon="4.09928">
        <ele>699.02</ele>
        <time>2024-04-28T11:10:49Z</time>
      </trkpt>
      <trkpt lat="45.4279" lon="4.09899">
        <ele>701.42</ele>
        <time>2024-04-28T11:10:31Z</time>
      </trkpt>
      <trkpt lat="45.42782" lon="4.09858">
        <ele>703.82</ele>
        <time>2024-04-28T11:10:15Z</time>
      </trkpt>
      <trkpt lat="45.42776" lon="4.09808">
        <ele>707.67</ele>
        <time>2024-04-28T11:09:59Z</time>
      </trkpt>
      <trkpt lat="45.42763" lon="4.09787">
        <ele>708.63</ele>
        <time>2024-04-28T11:09:47Z</time>
      </trkpt>
      <trkpt lat="45.42729" lon="4.09801">
        <ele>707.67</ele>
        <time>2024-04-28T11:09:32Z</time>
      </trkpt>
      <trkpt lat="45.42703" lon="4.09782">
        <ele>707.19</ele>
        <time>2024-04-28T11:09:13Z</time>
      </trkpt>
      <trkpt lat="45.42685" lon="4.09726">
        <ele>705.75</ele>
        <time>2024-04-28T11:08:52Z</time>
      </trkpt>
      <trkpt lat="45.42669" lon="4.09696">
        <ele>705.26</ele>
        <time>2024-04-28T11:08:36Z</time>
      </trkpt>
      <trkpt lat="45.42637" lon="4.09681">
        <ele>706.23</ele>
        <time>2024-04-28T11:08:16Z</time>
      </trkpt>
      <trkpt lat="45.42603" lon="4.09695">
        <ele>710.55</ele>
        <time>2024-04-28T11:07:55Z</time>
      </trkpt>
      <trkpt lat="45.42578" lon="4.09704">
        <ele>709.59</ele>
        <time>2024-04-28T11:07:39Z</time>
      </trkpt>
      <trkpt lat="45.42549" lon="4.09703">
        <ele>709.59</ele>
        <time>2024-04-28T11:07:21Z</time>
      </trkpt>
      <trkpt lat="45.42515" lon="4.09701">
        <ele>707.67</ele>
        <time>2024-04-28T11:07:00Z</time>
      </trkpt>
      <trkpt lat="45.42479" lon="4.09704">
        <ele>707.67</ele>
        <time>2024-04-28T11:06:37Z</time>
      </trkpt>
      <trkpt lat="45.42452" lon="4.097">
        <ele>706.71</ele>
        <time>2024-04-28T11:06:21Z</time>
      </trkpt>
      <trkpt lat="45.42432" lon="4.09654">
        <ele>708.15</ele>
        <time>2024-04-28T11:05:58Z</time>
      </trkpt>
      <trkpt lat="45.4242" lon="4.09605">
        <ele>709.11</ele>
        <time>2024-04-28T11:05:36Z</time>
      </trkpt>
      <trkpt lat="45.42408" lon="4.09564">
        <ele>709.59</ele>
        <time>2024-04-28T11:05:17Z</time>
      </trkpt>
      <trkpt lat="45.42394" lon="4.09516">
        <ele>711.03</ele>
        <time>2024-04-28T11:04:56Z</time>
      </trkpt>
      <trkpt lat="45.42393" lon="4.09481">
        <ele>712.95</ele>
        <time>2024-04-28T11:04:41Z</time>
      </trkpt>
      <trkpt lat="45.42409" lon="4.09448">
        <ele>715.36</ele>
        <time>2024-04-28T11:04:25Z</time>
      </trkpt>
      <trkpt lat="45.42423" lon="4.09417">
        <ele>716.8</ele>
        <time>2024-04-28T11:04:08Z</time>
      </trkpt>
      <trkpt lat="45.4244" lon="4.09377">
        <ele>719.68</ele>
        <time>2024-04-28T11:03:48Z</time>
      </trkpt>
      <trkpt lat="45.42455" lon="4.09338">
        <ele>723.53</ele>
        <time>2024-04-28T11:03:28Z</time>
      </trkpt>
      <trkpt lat="45.42467" lon="4.09295">
        <ele>726.41</ele>
        <time>2024-04-28T11:03:08Z</time>
      </trkpt>
      <trkpt lat="45.42483" lon="4.09256">
        <ele>727.86</ele>
        <time>2024-04-28T11:02:48Z</time>
      </trkpt>
      <trkpt lat="45.42498" lon="4.09221">
        <ele>728.82</ele>
        <time>2024-04-28T11:02:30Z</time>
      </trkpt>
      <trkpt lat="45.42514" lon="4.09189">
        <ele>732.18</ele>
        <time>2024-04-28T11:02:11Z</time>
      </trkpt>
      <trkpt lat="45.42533" lon="4.09154">
        <ele>736.03</ele>
        <time>2024-04-28T11:01:51Z</time>
      </trkpt>
      <trkpt lat="45.42536" lon="4.0914">
        <ele>736.51</ele>
        <time>2024-04-28T11:01:44Z</time>
      </trkpt>
      <trkpt lat="45.42539" lon="4.09103">
        <ele>734.58</ele>
        <time>2024-04-28T11:01:25Z</time>
      </trkpt>
      <trkpt lat="45.42539" lon="4.09058">
        <ele>734.58</ele>
        <time>2024-04-28T11:01:06Z</time>
      </trkpt>
      <trkpt lat="45.4253" lon="4.09014">
        <ele>736.03</ele>
        <time>2024-04-28T11:00:46Z</time>
      </trkpt>
      <trkpt lat="45.42532" lon="4.08972">
        <ele>738.91</ele>
        <time>2024-04-28T11:00:27Z</time>
      </trkpt>
      <trkpt lat="45.42532" lon="4.08967">
        <ele>738.91</ele>
        <time>2024-04-28T11:00:25Z</time>
      </trkpt>
      <trkpt lat="45.4253" lon="4.08921">
        <ele>736.99</ele>
        <time>2024-04-28T11:00:05Z</time>
      </trkpt>
      <trkpt lat="45.42532" lon="4.08871">
        <ele>733.62</ele>
        <time>2024-04-28T10:59:44Z</time>
      </trkpt>
      <trkpt lat="45.42538" lon="4.08831">
        <ele>733.14</ele>
        <time>2024-04-28T10:59:24Z</time>
      </trkpt>
      <trkpt lat="45.42539" lon="4.08822">
        <ele>731.7</ele>
        <time>2024-04-28T10:59:20Z</time>
      </trkpt>
      <trkpt lat="45.4254" lon="4.08817">
        <ele>732.18</ele>
        <time>2024-04-28T10:59:18Z</time>
      </trkpt>
      <trkpt lat="45.42538" lon="4.08776">
        <ele>732.66</ele>
        <time>2024-04-28T10:58:59Z</time>
      </trkpt>
      <trkpt lat="45.42534" lon="4.08742">
        <ele>730.74</ele>
        <time>2024-04-28T10:58:40Z</time>
      </trkpt>
      <trkpt lat="45.4253" lon="4.08704">
        <ele>732.66</ele>
        <time>2024-04-28T10:58:20Z</time>
      </trkpt>
      <trkpt lat="45.42526" lon="4.08665">
        <ele>734.58</ele>
        <time>2024-04-28T10:57:59Z</time>
      </trkpt>
      <trkpt lat="45.42528" lon="4.08661">
        <ele>734.1</ele>
        <time>2024-04-28T10:57:55Z</time>
      </trkpt>
      <trkpt lat="45.42562" lon="4.08669">
        <ele>733.62</ele>
        <time>2024-04-28T10:57:33Z</time>
      </trkpt>
      <trkpt lat="45.42589" lon="4.08677">
        <ele>732.66</ele>
        <time>2024-04-28T10:57:11Z</time>
      </trkpt>
      <trkpt lat="45.42623" lon="4.08691">
        <ele>735.07</ele>
        <time>2024-04-28T10:56:48Z</time>
      </trkpt>
      <trkpt lat="45.42643" lon="4.08677">
        <ele>737.47</ele>
        <time>2024-04-28T10:56:32Z</time>
      </trkpt>
      <trkpt lat="45.42647" lon="4.08665">
        <ele>736.51</ele>
        <time>2024-04-28T10:56:06Z</time>
      </trkpt>
      <trkpt lat="45.42644" lon="4.08669">
        <ele>732.66</ele>
        <time>2024-04-28T10:55:30Z</time>
      </trkpt>
      <trkpt lat="45.4264" lon="4.08675">
        <ele>732.66</ele>
        <time>2024-04-28T10:55:04Z</time>
      </trkpt>
      <trkpt lat="45.42641" lon="4.08668">
        <ele>736.03</ele>
        <time>2024-04-28T10:54:48Z</time>
      </trkpt>
      <trkpt lat="45.42651" lon="4.08649">
        <ele>735.55</ele>
        <time>2024-04-28T10:54:21Z</time>
      </trkpt>
      <trkpt lat="45.4264" lon="4.08638">
        <ele>742.28</ele>
        <time>2024-04-28T10:53:51Z</time>
      </trkpt>
      <trkpt lat="45.42625" lon="4.08624">
        <ele>744.2</ele>
        <time>2024-04-28T10:53:26Z</time>
      </trkpt>
      <trkpt lat="45.42634" lon="4.08624">
        <ele>743.24</ele>
        <time>2024-04-28T10:52:58Z</time>
      </trkpt>
      <trkpt lat="45.42634" lon="4.08624">
        <ele>738.43</ele>
        <time>2024-04-28T10:52:29Z</time>
      </trkpt>
      <trkpt lat="45.42635" lon="4.08628">
        <ele>734.58</ele>
        <time>2024-04-28T10:51:59Z</time>
      </trkpt>
      <trkpt lat="45.42643" lon="4.08645">
        <ele>720.65</ele>
        <time>2024-04-28T10:51:29Z</time>
      </trkpt>
      <trkpt lat="45.42654" lon="4.0864">
        <ele>711.03</ele>
        <time>2024-04-28T10:51:10Z</time>
      </trkpt>
      <trkpt lat="45.42645" lon="4.08635">
        <ele>710.07</ele>
        <time>2024-04-28T10:50:44Z</time>
      </trkpt>
      <trkpt lat="45.4264" lon="4.08632">
        <ele>714.4</ele>
        <time>2024-04-28T10:50:15Z</time>
      </trkpt>
      <trkpt lat="45.42618" lon="4.08612">
        <ele>718.24</ele>
        <time>2024-04-28T10:49:55Z</time>
      </trkpt>
      <trkpt lat="45.42605" lon="4.08586">
        <ele>719.68</ele>
        <time>2024-04-28T10:49:37Z</time>
      </trkpt>
      <trkpt lat="45.42594" lon="4.08547">
        <ele>722.57</ele>
        <time>2024-04-28T10:49:17Z</time>
      </trkpt>
      <trkpt lat="45.42571" lon="4.085">
        <ele>725.93</ele>
        <time>2024-04-28T10:48:56Z</time>
      </trkpt>
      <trkpt lat="45.42551" lon="4.08476">
        <ele>726.89</ele>
        <time>2024-04-28T10:48:34Z</time>
      </trkpt>
      <trkpt lat="45.42574" lon="4.0847">
        <ele>721.61</ele>
        <time>2024-04-28T10:48:16Z</time>
      </trkpt>
      <trkpt lat="45.42593" lon="4.08491">
        <ele>731.22</ele>
        <time>2024-04-28T10:47:57Z</time>
      </trkpt>
      <trkpt lat="45.4262" lon="4.08514">
        <ele>736.99</ele>
        <time>2024-04-28T10:47:36Z</time>
      </trkpt>
      <trkpt lat="45.42643" lon="4.08523">
        <ele>737.47</ele>
        <time>2024-04-28T10:47:18Z</time>
      </trkpt>
      <trkpt lat="45.42667" lon="4.08537">
        <ele>739.87</ele>
        <time>2024-04-28T10:47:02Z</time>
      </trkpt>
      <trkpt lat="45.42691" lon="4.08552">
        <ele>745.64</ele>
        <time>2024-04-28T10:46:42Z</time>
      </trkpt>
      <trkpt lat="45.42707" lon="4.0856">
        <ele>746.6</ele>
        <time>2024-04-28T10:46:30Z</time>
      </trkpt>
      <trkpt lat="45.42736" lon="4.08556">
        <ele>749.49</ele>
        <time>2024-04-28T10:46:11Z</time>
      </trkpt>
      <trkpt lat="45.42765" lon="4.08536">
        <ele>746.6</ele>
        <time>2024-04-28T10:45:51Z</time>
      </trkpt>
      <trkpt lat="45.42778" lon="4.08521">
        <ele>741.79</ele>
        <time>2024-04-28T10:45:46Z</time>
      </trkpt>
      <trkpt lat="45.42813" lon="4.08516">
        <ele>739.87</ele>
        <time>2024-04-28T10:45:27Z</time>
      </trkpt>
      <trkpt lat="45.42838" lon="4.08526">
        <ele>748.04</ele>
        <time>2024-04-28T10:45:08Z</time>
      </trkpt>
      <trkpt lat="45.42858" lon="4.08539">
        <ele>760.06</ele>
        <time>2024-04-28T10:44:48Z</time>
      </trkpt>
      <trkpt lat="45.4288" lon="4.08555">
        <ele>769.67</ele>
        <time>2024-04-28T10:44:30Z</time>
      </trkpt>
      <trkpt lat="45.42914" lon="4.08573">
        <ele>774</ele>
        <time>2024-04-28T10:44:08Z</time>
      </trkpt>
      <trkpt lat="45.4295" lon="4.08584">
        <ele>779.77</ele>
        <time>2024-04-28T10:43:48Z</time>
      </trkpt>
      <trkpt lat="45.42977" lon="4.08576">
        <ele>776.88</ele>
        <time>2024-04-28T10:43:27Z</time>
      </trkpt>
      <trkpt lat="45.43" lon="4.08555">
        <ele>776.88</ele>
        <time>2024-04-28T10:43:12Z</time>
      </trkpt>
      <trkpt lat="45.43004" lon="4.08521">
        <ele>775.44</ele>
        <time>2024-04-28T10:42:58Z</time>
      </trkpt>
      <trkpt lat="45.42987" lon="4.08489">
        <ele>779.29</ele>
        <time>2024-04-28T10:42:42Z</time>
      </trkpt>
      <trkpt lat="45.42962" lon="4.08459">
        <ele>785.53</ele>
        <time>2024-04-28T10:42:22Z</time>
      </trkpt>
      <trkpt lat="45.42922" lon="4.08435">
        <ele>779.29</ele>
        <time>2024-04-28T10:41:58Z</time>
      </trkpt>
      <trkpt lat="45.42899" lon="4.08409">
        <ele>774</ele>
        <time>2024-04-28T10:41:39Z</time>
      </trkpt>
      <trkpt lat="45.4288" lon="4.08378">
        <ele>782.17</ele>
        <time>2024-04-28T10:41:17Z</time>
      </trkpt>
      <trkpt lat="45.42864" lon="4.08346">
        <ele>791.3</ele>
        <time>2024-04-28T10:40:58Z</time>
      </trkpt>
      <trkpt lat="45.42842" lon="4.08317">
        <ele>798.99</ele>
        <time>2024-04-28T10:40:35Z</time>
      </trkpt>
      <trkpt lat="45.42811" lon="4.08303">
        <ele>798.51</ele>
        <time>2024-04-28T10:40:16Z</time>
      </trkpt>
      <trkpt lat="45.42807" lon="4.083">
        <ele>798.99</ele>
        <time>2024-04-28T10:40:13Z</time>
      </trkpt>
      <trkpt lat="45.42792" lon="4.0828">
        <ele>805.72</ele>
        <time>2024-04-28T10:39:54Z</time>
      </trkpt>
      <trkpt lat="45.42814" lon="4.0827">
        <ele>808.13</ele>
        <time>2024-04-28T10:39:38Z</time>
      </trkpt>
      <trkpt lat="45.42842" lon="4.08269">
        <ele>813.89</ele>
        <time>2024-04-28T10:39:22Z</time>
      </trkpt>
      <trkpt lat="45.42846" lon="4.08269">
        <ele>814.85</ele>
        <time>2024-04-28T10:39:20Z</time>
      </trkpt>
      <trkpt lat="45.42872" lon="4.08278">
        <ele>824.95</ele>
        <time>2024-04-28T10:39:00Z</time>
      </trkpt>
      <trkpt lat="45.42899" lon="4.08279">
        <ele>832.64</ele>
        <time>2024-04-28T10:38:40Z</time>
      </trkpt>
      <trkpt lat="45.42927" lon="4.08283">
        <ele>829.76</ele>
        <time>2024-04-28T10:38:18Z</time>
      </trkpt>
      <trkpt lat="45.42968" lon="4.08276">
        <ele>819.66</ele>
        <time>2024-04-28T10:37:54Z</time>
      </trkpt>
      <trkpt lat="45.4299" lon="4.08261">
        <ele>813.89</ele>
        <time>2024-04-28T10:37:31Z</time>
      </trkpt>
      <trkpt lat="45.43012" lon="4.08238">
        <ele>804.28</ele>
        <time>2024-04-28T10:37:11Z</time>
      </trkpt>
      <trkpt lat="45.43024" lon="4.08201">
        <ele>801.88</ele>
        <time>2024-04-28T10:36:50Z</time>
      </trkpt>
      <trkpt lat="45.43031" lon="4.08165">
        <ele>800.92</ele>
        <time>2024-04-28T10:36:33Z</time>
      </trkpt>
      <trkpt lat="45.43034" lon="4.08129">
        <ele>799.47</ele>
        <time>2024-04-28T10:36:12Z</time>
      </trkpt>
      <trkpt lat="45.43037" lon="4.08087">
        <ele>795.63</ele>
        <time>2024-04-28T10:35:51Z</time>
      </trkpt>
      <trkpt lat="45.43042" lon="4.08047">
        <ele>791.3</ele>
        <time>2024-04-28T10:35:31Z</time>
      </trkpt>
      <trkpt lat="45.43047" lon="4.08011">
        <ele>788.9</ele>
        <time>2024-04-28T10:35:12Z</time>
      </trkpt>
      <trkpt lat="45.4305" lon="4.07982">
        <ele>787.46</ele>
        <time>2024-04-28T10:34:55Z</time>
      </trkpt>
      <trkpt lat="45.43052" lon="4.07952">
        <ele>785.53</ele>
        <time>2024-04-28T10:34:37Z</time>
      </trkpt>
      <trkpt lat="45.43053" lon="4.07943">
        <ele>786.5</ele>
        <time>2024-04-28T10:34:07Z</time>
      </trkpt>
      <trkpt lat="45.43053" lon="4.07941">
        <ele>788.9</ele>
        <time>2024-04-28T10:33:30Z</time>
      </trkpt>
      <trkpt lat="45.43064" lon="4.07935">
        <ele>785.53</ele>
        <time>2024-04-28T10:33:02Z</time>
      </trkpt>
      <trkpt lat="45.43065" lon="4.07932">
        <ele>783.61</ele>
        <time>2024-04-28T10:32:29Z</time>
      </trkpt>
      <trkpt lat="45.4306" lon="4.07938">
        <ele>786.02</ele>
        <time>2024-04-28T10:31:59Z</time>
      </trkpt>
      <trkpt lat="45.43063" lon="4.07931">
        <ele>785.05</ele>
        <time>2024-04-28T10:31:38Z</time>
      </trkpt>
      <trkpt lat="45.43064" lon="4.07932">
        <ele>786.98</ele>
        <time>2024-04-28T10:31:06Z</time>
      </trkpt>
      <trkpt lat="45.43071" lon="4.07917">
        <ele>788.42</ele>
        <time>2024-04-28T10:30:50Z</time>
      </trkpt>
      <trkpt lat="45.43081" lon="4.07878">
        <ele>789.38</ele>
        <time>2024-04-28T10:30:33Z</time>
      </trkpt>
      <trkpt lat="45.43081" lon="4.07876">
        <ele>789.38</ele>
        <time>2024-04-28T10:30:32Z</time>
      </trkpt>
      <trkpt lat="45.43081" lon="4.07874">
        <ele>789.86</ele>
        <time>2024-04-28T10:30:31Z</time>
      </trkpt>
      <trkpt lat="45.43081" lon="4.07872">
        <ele>789.86</ele>
        <time>2024-04-28T10:30:30Z</time>
      </trkpt>
      <trkpt lat="45.43081" lon="4.0787">
        <ele>789.86</ele>
        <time>2024-04-28T10:30:29Z</time>
      </trkpt>
      <trkpt lat="45.43081" lon="4.07868">
        <ele>789.86</ele>
        <time>2024-04-28T10:30:28Z</time>
      </trkpt>
      <trkpt lat="45.4308" lon="4.07866">
        <ele>790.34</ele>
        <time>2024-04-28T10:30:27Z</time>
      </trkpt>
      <trkpt lat="45.43078" lon="4.07862">
        <ele>790.82</ele>
        <time>2024-04-28T10:30:24Z</time>
      </trkpt>
      <trkpt lat="45.4306" lon="4.07829">
        <ele>793.22</ele>
        <time>2024-04-28T10:30:05Z</time>
      </trkpt>
      <trkpt lat="45.43044" lon="4.078">
        <ele>793.71</ele>
        <time>2024-04-28T10:29:47Z</time>
      </trkpt>
      <trkpt lat="45.43031" lon="4.07778">
        <ele>795.15</ele>
        <time>2024-04-28T10:29:30Z</time>
      </trkpt>
      <trkpt lat="45.43015" lon="4.07759">
        <ele>800.44</ele>
        <time>2024-04-28T10:29:12Z</time>
      </trkpt>
      <trkpt lat="45.43004" lon="4.07711">
        <ele>804.28</ele>
        <time>2024-04-28T10:28:59Z</time>
      </trkpt>
      <trkpt lat="45.42997" lon="4.07652">
        <ele>809.09</ele>
        <time>2024-04-28T10:28:38Z</time>
      </trkpt>
      <trkpt lat="45.42991" lon="4.07598">
        <ele>810.53</ele>
        <time>2024-04-28T10:28:13Z</time>
      </trkpt>
      <trkpt lat="45.42993" lon="4.07554">
        <ele>812.45</ele>
        <time>2024-04-28T10:27:52Z</time>
      </trkpt>
      <trkpt lat="45.42997" lon="4.07539">
        <ele>813.89</ele>
        <time>2024-04-28T10:27:43Z</time>
      </trkpt>
      <trkpt lat="45.43021" lon="4.07539">
        <ele>814.85</ele>
        <time>2024-04-28T10:27:32Z</time>
      </trkpt>
      <trkpt lat="45.43044" lon="4.07526">
        <ele>815.82</ele>
        <time>2024-04-28T10:27:21Z</time>
      </trkpt>
      <trkpt lat="45.43063" lon="4.07495">
        <ele>819.66</ele>
        <time>2024-04-28T10:27:03Z</time>
      </trkpt>
      <trkpt lat="45.4309" lon="4.0749">
        <ele>823.03</ele>
        <time>2024-04-28T10:26:43Z</time>
      </trkpt>
      <trkpt lat="45.43123" lon="4.07504">
        <ele>824.95</ele>
        <time>2024-04-28T10:26:19Z</time>
      </trkpt>
      <trkpt lat="45.43153" lon="4.07523">
        <ele>821.58</ele>
        <time>2024-04-28T10:25:56Z</time>
      </trkpt>
      <trkpt lat="45.43154" lon="4.07524">
        <ele>821.1</ele>
        <time>2024-04-28T10:25:55Z</time>
      </trkpt>
      <trkpt lat="45.4315" lon="4.07542">
        <ele>819.18</ele>
        <time>2024-04-28T10:25:46Z</time>
      </trkpt>
      <trkpt lat="45.43149" lon="4.07547">
        <ele>818.7</ele>
        <time>2024-04-28T10:25:45Z</time>
      </trkpt>
      <trkpt lat="45.43148" lon="4.07552">
        <ele>818.7</ele>
        <time>2024-04-28T10:25:44Z</time>
      </trkpt>
      <trkpt lat="45.43148" lon="4.07556">
        <ele>818.7</ele>
        <time>2024-04-28T10:25:43Z</time>
      </trkpt>
      <trkpt lat="45.43149" lon="4.0756">
        <ele>818.7</ele>
        <time>2024-04-28T10:25:42Z</time>
      </trkpt>
      <trkpt lat="45.43156" lon="4.0757">
        <ele>818.22</ele>
        <time>2024-04-28T10:25:37Z</time>
      </trkpt>
      <trkpt lat="45.43189" lon="4.07587">
        <ele>818.7</ele>
        <time>2024-04-28T10:25:13Z</time>
      </trkpt>
      <trkpt lat="45.43219" lon="4.07615">
        <ele>819.66</ele>
        <time>2024-04-28T10:24:50Z</time>
      </trkpt>
      <trkpt lat="45.4322" lon="4.07617">
        <ele>819.66</ele>
        <time>2024-04-28T10:24:49Z</time>
      </trkpt>
      <trkpt lat="45.43221" lon="4.07618">
        <ele>820.14</ele>
        <time>2024-04-28T10:24:48Z</time>
      </trkpt>
      <trkpt lat="45.43222" lon="4.0762">
        <ele>820.14</ele>
        <time>2024-04-28T10:24:47Z</time>
      </trkpt>
      <trkpt lat="45.43224" lon="4.07621">
        <ele>820.62</ele>
        <time>2024-04-28T10:24:46Z</time>
      </trkpt>
      <trkpt lat="45.43226" lon="4.07622">
        <ele>821.1</ele>
        <time>2024-04-28T10:24:45Z</time>
      </trkpt>
      <trkpt lat="45.43248" lon="4.07603">
        <ele>824.47</ele>
        <time>2024-04-28T10:24:26Z</time>
      </trkpt>
      <trkpt lat="45.43265" lon="4.07602">
        <ele>826.39</ele>
        <time>2024-04-28T10:24:12Z</time>
      </trkpt>
      <trkpt lat="45.43288" lon="4.07598">
        <ele>827.83</ele>
        <time>2024-04-28T10:23:51Z</time>
      </trkpt>
      <trkpt lat="45.4329" lon="4.07597">
        <ele>827.83</ele>
        <time>2024-04-28T10:23:49Z</time>
      </trkpt>
      <trkpt lat="45.43313" lon="4.07614">
        <ele>825.91</ele>
        <time>2024-04-28T10:23:33Z</time>
      </trkpt>
      <trkpt lat="45.43336" lon="4.07632">
        <ele>822.55</ele>
        <time>2024-04-28T10:23:15Z</time>
      </trkpt>
      <trkpt lat="45.43358" lon="4.07655">
        <ele>818.22</ele>
        <time>2024-04-28T10:22:57Z</time>
      </trkpt>
      <trkpt lat="45.43393" lon="4.07669">
        <ele>813.89</ele>
        <time>2024-04-28T10:22:34Z</time>
      </trkpt>
      <trkpt lat="45.43428" lon="4.07684">
        <ele>810.53</ele>
        <time>2024-04-28T10:22:12Z</time>
      </trkpt>
      <trkpt lat="45.43461" lon="4.07702">
        <ele>808.61</ele>
        <time>2024-04-28T10:21:51Z</time>
      </trkpt>
      <trkpt lat="45.43491" lon="4.07712">
        <ele>808.13</ele>
        <time>2024-04-28T10:21:31Z</time>
      </trkpt>
      <trkpt lat="45.43524" lon="4.07693">
        <ele>805.24</ele>
        <time>2024-04-28T10:21:14Z</time>
      </trkpt>
      <trkpt lat="45.43556" lon="4.07681">
        <ele>805.24</ele>
        <time>2024-04-28T10:20:54Z</time>
      </trkpt>
      <trkpt lat="45.43585" lon="4.07683">
        <ele>806.68</ele>
        <time>2024-04-28T10:20:36Z</time>
      </trkpt>
      <trkpt lat="45.4362" lon="4.07688">
        <ele>809.57</ele>
        <time>2024-04-28T10:20:12Z</time>
      </trkpt>
      <trkpt lat="45.43654" lon="4.07688">
        <ele>811.01</ele>
        <time>2024-04-28T10:19:51Z</time>
      </trkpt>
      <trkpt lat="45.43691" lon="4.07697">
        <ele>812.45</ele>
        <time>2024-04-28T10:19:26Z</time>
      </trkpt>
      <trkpt lat="45.43721" lon="4.07706">
        <ele>813.89</ele>
        <time>2024-04-28T10:19:06Z</time>
      </trkpt>
      <trkpt lat="45.43752" lon="4.07714">
        <ele>811.49</ele>
        <time>2024-04-28T10:18:45Z</time>
      </trkpt>
      <trkpt lat="45.43766" lon="4.07718">
        <ele>810.05</ele>
        <time>2024-04-28T10:18:34Z</time>
      </trkpt>
      <trkpt lat="45.43767" lon="4.07719">
        <ele>810.05</ele>
        <time>2024-04-28T10:18:33Z</time>
      </trkpt>
      <trkpt lat="45.43768" lon="4.0772">
        <ele>809.57</ele>
        <time>2024-04-28T10:18:32Z</time>
      </trkpt>
      <trkpt lat="45.4377" lon="4.07722">
        <ele>809.57</ele>
        <time>2024-04-28T10:18:31Z</time>
      </trkpt>
      <trkpt lat="45.43773" lon="4.07723">
        <ele>809.57</ele>
        <time>2024-04-28T10:18:30Z</time>
      </trkpt>
      <trkpt lat="45.43775" lon="4.07724">
        <ele>809.57</ele>
        <time>2024-04-28T10:18:29Z</time>
      </trkpt>
      <trkpt lat="45.43777" lon="4.07723">
        <ele>809.09</ele>
        <time>2024-04-28T10:18:28Z</time>
      </trkpt>
      <trkpt lat="45.43779" lon="4.07723">
        <ele>809.09</ele>
        <time>2024-04-28T10:18:27Z</time>
      </trkpt>
      <trkpt lat="45.43781" lon="4.07722">
        <ele>809.09</ele>
        <time>2024-04-28T10:18:26Z</time>
      </trkpt>
      <trkpt lat="45.43778" lon="4.07677">
        <ele>810.05</ele>
        <time>2024-04-28T10:18:04Z</time>
      </trkpt>
      <trkpt lat="45.43769" lon="4.07629">
        <ele>811.01</ele>
        <time>2024-04-28T10:17:42Z</time>
      </trkpt>
      <trkpt lat="45.43749" lon="4.07593">
        <ele>813.41</ele>
        <time>2024-04-28T10:17:23Z</time>
      </trkpt>
      <trkpt lat="45.43724" lon="4.07543">
        <ele>816.3</ele>
        <time>2024-04-28T10:16:56Z</time>
      </trkpt>
      <trkpt lat="45.43716" lon="4.07496">
        <ele>814.85</ele>
        <time>2024-04-28T10:16:36Z</time>
      </trkpt>
      <trkpt lat="45.43722" lon="4.07428">
        <ele>815.34</ele>
        <time>2024-04-28T10:16:06Z</time>
      </trkpt>
      <trkpt lat="45.43721" lon="4.07367">
        <ele>816.3</ele>
        <time>2024-04-28T10:15:38Z</time>
      </trkpt>
      <trkpt lat="45.43716" lon="4.07323">
        <ele>820.14</ele>
        <time>2024-04-28T10:15:17Z</time>
      </trkpt>
      <trkpt lat="45.43702" lon="4.07286">
        <ele>821.1</ele>
        <time>2024-04-28T10:14:59Z</time>
      </trkpt>
      <trkpt lat="45.43677" lon="4.07255">
        <ele>823.51</ele>
        <time>2024-04-28T10:14:36Z</time>
      </trkpt>
      <trkpt lat="45.43653" lon="4.07231">
        <ele>824.95</ele>
        <time>2024-04-28T10:14:16Z</time>
      </trkpt>
      <trkpt lat="45.43656" lon="4.07185">
        <ele>826.39</ele>
        <time>2024-04-28T10:13:53Z</time>
      </trkpt>
      <trkpt lat="45.43653" lon="4.07172">
        <ele>827.83</ele>
        <time>2024-04-28T10:13:47Z</time>
      </trkpt>
      <trkpt lat="45.4365" lon="4.07167">
        <ele>829.27</ele>
        <time>2024-04-28T10:13:42Z</time>
      </trkpt>
      <trkpt lat="45.43655" lon="4.07128">
        <ele>830.24</ele>
        <time>2024-04-28T10:13:20Z</time>
      </trkpt>
      <trkpt lat="45.43655" lon="4.07087">
        <ele>831.68</ele>
        <time>2024-04-28T10:13:00Z</time>
      </trkpt>
      <trkpt lat="45.43642" lon="4.07043">
        <ele>834.08</ele>
        <time>2024-04-28T10:12:36Z</time>
      </trkpt>
      <trkpt lat="45.43629" lon="4.07002">
        <ele>837.45</ele>
        <time>2024-04-28T10:12:14Z</time>
      </trkpt>
      <trkpt lat="45.4362" lon="4.06975">
        <ele>838.89</ele>
        <time>2024-04-28T10:11:59Z</time>
      </trkpt>
      <trkpt lat="45.4364" lon="4.06963">
        <ele>838.89</ele>
        <time>2024-04-28T10:11:48Z</time>
      </trkpt>
      <trkpt lat="45.43688" lon="4.06938">
        <ele>837.93</ele>
        <time>2024-04-28T10:11:30Z</time>
      </trkpt>
      <trkpt lat="45.43728" lon="4.06914">
        <ele>836.96</ele>
        <time>2024-04-28T10:11:14Z</time>
      </trkpt>
      <trkpt lat="45.43767" lon="4.06879">
        <ele>836.96</ele>
        <time>2024-04-28T10:10:59Z</time>
      </trkpt>
      <trkpt lat="45.43797" lon="4.06839">
        <ele>834.56</ele>
        <time>2024-04-28T10:10:42Z</time>
      </trkpt>
      <trkpt lat="45.43826" lon="4.0679">
        <ele>831.68</ele>
        <time>2024-04-28T10:10:28Z</time>
      </trkpt>
      <trkpt lat="45.43845" lon="4.06727">
        <ele>828.79</ele>
        <time>2024-04-28T10:10:13Z</time>
      </trkpt>
      <trkpt lat="45.43853" lon="4.06662">
        <ele>826.39</ele>
        <time>2024-04-28T10:09:58Z</time>
      </trkpt>
      <trkpt lat="45.43861" lon="4.06596">
        <ele>820.14</ele>
        <time>2024-04-28T10:09:39Z</time>
      </trkpt>
      <trkpt lat="45.4385" lon="4.0653">
        <ele>807.64</ele>
        <time>2024-04-28T10:09:22Z</time>
      </trkpt>
      <trkpt lat="45.43835" lon="4.06463">
        <ele>809.57</ele>
        <time>2024-04-28T10:09:07Z</time>
      </trkpt>
      <trkpt lat="45.43821" lon="4.06414">
        <ele>811.49</ele>
        <time>2024-04-28T10:08:54Z</time>
      </trkpt>
      <trkpt lat="45.4381" lon="4.06384">
        <ele>813.89</ele>
        <time>2024-04-28T10:08:39Z</time>
      </trkpt>
      <trkpt lat="45.43796" lon="4.06341">
        <ele>818.22</ele>
        <time>2024-04-28T10:08:17Z</time>
      </trkpt>
      <trkpt lat="45.43782" lon="4.06303">
        <ele>818.22</ele>
        <time>2024-04-28T10:07:56Z</time>
      </trkpt>
      <trkpt lat="45.43769" lon="4.06261">
        <ele>820.62</ele>
        <time>2024-04-28T10:07:35Z</time>
      </trkpt>
      <trkpt lat="45.43763" lon="4.06217">
        <ele>823.03</ele>
        <time>2024-04-28T10:07:18Z</time>
      </trkpt>
      <trkpt lat="45.43759" lon="4.0618">
        <ele>828.79</ele>
        <time>2024-04-28T10:07:00Z</time>
      </trkpt>
      <trkpt lat="45.43752" lon="4.0614">
        <ele>831.68</ele>
        <time>2024-04-28T10:06:38Z</time>
      </trkpt>
      <trkpt lat="45.43756" lon="4.06095">
        <ele>826.87</ele>
        <time>2024-04-28T10:06:16Z</time>
      </trkpt>
      <trkpt lat="45.43758" lon="4.06053">
        <ele>823.51</ele>
        <time>2024-04-28T10:05:57Z</time>
      </trkpt>
      <trkpt lat="45.43765" lon="4.06015">
        <ele>821.58</ele>
        <time>2024-04-28T10:05:36Z</time>
      </trkpt>
      <trkpt lat="45.43775" lon="4.05976">
        <ele>819.66</ele>
        <time>2024-04-28T10:05:23Z</time>
      </trkpt>
      <trkpt lat="45.43788" lon="4.05935">
        <ele>816.3</ele>
        <time>2024-04-28T10:05:04Z</time>
      </trkpt>
      <trkpt lat="45.43803" lon="4.05898">
        <ele>818.7</ele>
        <time>2024-04-28T10:04:42Z</time>
      </trkpt>
      <trkpt lat="45.43826" lon="4.05856">
        <ele>817.74</ele>
        <time>2024-04-28T10:04:24Z</time>
      </trkpt>
      <trkpt lat="45.43833" lon="4.05843">
        <ele>816.78</ele>
        <time>2024-04-28T10:04:17Z</time>
      </trkpt>
      <trkpt lat="45.43856" lon="4.05818">
        <ele>815.34</ele>
        <time>2024-04-28T10:03:59Z</time>
      </trkpt>
      <trkpt lat="45.43879" lon="4.05798">
        <ele>814.37</ele>
        <time>2024-04-28T10:03:43Z</time>
      </trkpt>
      <trkpt lat="45.43905" lon="4.05773">
        <ele>811.49</ele>
        <time>2024-04-28T10:03:27Z</time>
      </trkpt>
      <trkpt lat="45.43945" lon="4.05757">
        <ele>809.57</ele>
        <time>2024-04-28T10:03:12Z</time>
      </trkpt>
      <trkpt lat="45.43997" lon="4.05747">
        <ele>809.09</ele>
        <time>2024-04-28T10:02:57Z</time>
      </trkpt>
      <trkpt lat="45.44062" lon="4.05753">
        <ele>811.49</ele>
        <time>2024-04-28T10:02:42Z</time>
      </trkpt>
      <trkpt lat="45.44066" lon="4.05754">
        <ele>811.97</ele>
        <time>2024-04-28T10:02:41Z</time>
      </trkpt>
      <trkpt lat="45.44075" lon="4.05758">
        <ele>812.93</ele>
        <time>2024-04-28T10:02:39Z</time>
      </trkpt>
      <trkpt lat="45.44135" lon="4.058">
        <ele>816.3</ele>
        <time>2024-04-28T10:02:25Z</time>
      </trkpt>
      <trkpt lat="45.44201" lon="4.05887">
        <ele>816.3</ele>
        <time>2024-04-28T10:02:08Z</time>
      </trkpt>
      <trkpt lat="45.44241" lon="4.06003">
        <ele>814.85</ele>
        <time>2024-04-28T10:01:51Z</time>
      </trkpt>
      <trkpt lat="45.44254" lon="4.06097">
        <ele>812.45</ele>
        <time>2024-04-28T10:01:37Z</time>
      </trkpt>
      <trkpt lat="45.44258" lon="4.0612">
        <ele>811.49</ele>
        <time>2024-04-28T10:01:33Z</time>
      </trkpt>
      <trkpt lat="45.44265" lon="4.06173">
        <ele>809.57</ele>
        <time>2024-04-28T10:01:25Z</time>
      </trkpt>
      <trkpt lat="45.44269" lon="4.06217">
        <ele>808.13</ele>
        <time>2024-04-28T10:01:20Z</time>
      </trkpt>
      <trkpt lat="45.44297" lon="4.0634">
        <ele>804.28</ele>
        <time>2024-04-28T10:01:04Z</time>
      </trkpt>
      <trkpt lat="45.44346" lon="4.06436">
        <ele>806.68</ele>
        <time>2024-04-28T10:00:48Z</time>
      </trkpt>
      <trkpt lat="45.44422" lon="4.06527">
        <ele>803.8</ele>
        <time>2024-04-28T10:00:28Z</time>
      </trkpt>
      <trkpt lat="45.44468" lon="4.0658">
        <ele>801.88</ele>
        <time>2024-04-28T10:00:16Z</time>
      </trkpt>
      <trkpt lat="45.44492" lon="4.06612">
        <ele>801.4</ele>
        <time>2024-04-28T09:59:59Z</time>
      </trkpt>
      <trkpt lat="45.44517" lon="4.06641">
        <ele>800.44</ele>
        <time>2024-04-28T09:59:36Z</time>
      </trkpt>
      <trkpt lat="45.44544" lon="4.06667">
        <ele>799.47</ele>
        <time>2024-04-28T09:59:14Z</time>
      </trkpt>
      <trkpt lat="45.44573" lon="4.06697">
        <ele>797.55</ele>
        <time>2024-04-28T09:58:48Z</time>
      </trkpt>
      <trkpt lat="45.44597" lon="4.06725">
        <ele>795.63</ele>
        <time>2024-04-28T09:58:26Z</time>
      </trkpt>
      <trkpt lat="45.44629" lon="4.06746">
        <ele>793.22</ele>
        <time>2024-04-28T09:58:09Z</time>
      </trkpt>
      <trkpt lat="45.44655" lon="4.06764">
        <ele>792.74</ele>
        <time>2024-04-28T09:57:51Z</time>
      </trkpt>
      <trkpt lat="45.44682" lon="4.06781">
        <ele>792.74</ele>
        <time>2024-04-28T09:57:31Z</time>
      </trkpt>
      <trkpt lat="45.44707" lon="4.06801">
        <ele>793.71</ele>
        <time>2024-04-28T09:57:12Z</time>
      </trkpt>
      <trkpt lat="45.44736" lon="4.06809">
        <ele>796.11</ele>
        <time>2024-04-28T09:56:56Z</time>
      </trkpt>
      <trkpt lat="45.4476" lon="4.06829">
        <ele>800.44</ele>
        <time>2024-04-28T09:56:42Z</time>
      </trkpt>
      <trkpt lat="45.44791" lon="4.06834">
        <ele>801.4</ele>
        <time>2024-04-28T09:56:28Z</time>
      </trkpt>
      <trkpt lat="45.44865" lon="4.06831">
        <ele>803.32</ele>
        <time>2024-04-28T09:56:12Z</time>
      </trkpt>
      <trkpt lat="45.44954" lon="4.06818">
        <ele>805.72</ele>
        <time>2024-04-28T09:55:55Z</time>
      </trkpt>
      <trkpt lat="45.45025" lon="4.06825">
        <ele>802.84</ele>
        <time>2024-04-28T09:55:41Z</time>
      </trkpt>
      <trkpt lat="45.45104" lon="4.06842">
        <ele>799.47</ele>
        <time>2024-04-28T09:55:26Z</time>
      </trkpt>
      <trkpt lat="45.45172" lon="4.06843">
        <ele>796.59</ele>
        <time>2024-04-28T09:55:13Z</time>
      </trkpt>
      <trkpt lat="45.45253" lon="4.06818">
        <ele>790.34</ele>
        <time>2024-04-28T09:54:56Z</time>
      </trkpt>
      <trkpt lat="45.45309" lon="4.06787">
        <ele>787.46</ele>
        <time>2024-04-28T09:54:44Z</time>
      </trkpt>
      <trkpt lat="45.45336" lon="4.06759">
        <ele>783.61</ele>
        <time>2024-04-28T09:54:24Z</time>
      </trkpt>
      <trkpt lat="45.45366" lon="4.06726">
        <ele>780.25</ele>
        <time>2024-04-28T09:54:00Z</time>
      </trkpt>
      <trkpt lat="45.45389" lon="4.06696">
        <ele>780.25</ele>
        <time>2024-04-28T09:53:39Z</time>
      </trkpt>
      <trkpt lat="45.45413" lon="4.06662">
        <ele>780.73</ele>
        <time>2024-04-28T09:53:17Z</time>
      </trkpt>
      <trkpt lat="45.4544" lon="4.06627">
        <ele>781.69</ele>
        <time>2024-04-28T09:52:54Z</time>
      </trkpt>
      <trkpt lat="45.45461" lon="4.06602">
        <ele>785.53</ele>
        <time>2024-04-28T09:52:35Z</time>
      </trkpt>
      <trkpt lat="45.4549" lon="4.06573">
        <ele>789.38</ele>
        <time>2024-04-28T09:52:10Z</time>
      </trkpt>
      <trkpt lat="45.45506" lon="4.06561">
        <ele>790.34</ele>
        <time>2024-04-28T09:51:57Z</time>
      </trkpt>
      <trkpt lat="45.45507" lon="4.06561">
        <ele>790.34</ele>
        <time>2024-04-28T09:51:56Z</time>
      </trkpt>
      <trkpt lat="45.45517" lon="4.0656">
        <ele>789.86</ele>
        <time>2024-04-28T09:51:42Z</time>
      </trkpt>
      <trkpt lat="45.45545" lon="4.06544">
        <ele>788.42</ele>
        <time>2024-04-28T09:51:24Z</time>
      </trkpt>
      <trkpt lat="45.45574" lon="4.06534">
        <ele>786.98</ele>
        <time>2024-04-28T09:51:11Z</time>
      </trkpt>
      <trkpt lat="45.45627" lon="4.06525">
        <ele>786.5</ele>
        <time>2024-04-28T09:50:54Z</time>
      </trkpt>
      <trkpt lat="45.45679" lon="4.06522">
        <ele>786.5</ele>
        <time>2024-04-28T09:50:35Z</time>
      </trkpt>
      <trkpt lat="45.45732" lon="4.06532">
        <ele>785.05</ele>
        <time>2024-04-28T09:50:16Z</time>
      </trkpt>
      <trkpt lat="45.45765" lon="4.06546">
        <ele>782.17</ele>
        <time>2024-04-28T09:50:01Z</time>
      </trkpt>
      <trkpt lat="45.45802" lon="4.06571">
        <ele>779.77</ele>
        <time>2024-04-28T09:49:43Z</time>
      </trkpt>
      <trkpt lat="45.45829" lon="4.06595">
        <ele>779.77</ele>
        <time>2024-04-28T09:49:26Z</time>
      </trkpt>
      <trkpt lat="45.45858" lon="4.06631">
        <ele>778.32</ele>
        <time>2024-04-28T09:49:04Z</time>
      </trkpt>
      <trkpt lat="45.45879" lon="4.0666">
        <ele>774.96</ele>
        <time>2024-04-28T09:48:47Z</time>
      </trkpt>
      <trkpt lat="45.45904" lon="4.06699">
        <ele>773.04</ele>
        <time>2024-04-28T09:48:25Z</time>
      </trkpt>
      <trkpt lat="45.45924" lon="4.06731">
        <ele>770.63</ele>
        <time>2024-04-28T09:48:11Z</time>
      </trkpt>
      <trkpt lat="45.45946" lon="4.06768">
        <ele>768.23</ele>
        <time>2024-04-28T09:47:48Z</time>
      </trkpt>
      <trkpt lat="45.45979" lon="4.06816">
        <ele>769.19</ele>
        <time>2024-04-28T09:47:29Z</time>
      </trkpt>
      <trkpt lat="45.46001" lon="4.06855">
        <ele>768.71</ele>
        <time>2024-04-28T09:47:17Z</time>
      </trkpt>
      <trkpt lat="45.46022" lon="4.06889">
        <ele>767.75</ele>
        <time>2024-04-28T09:46:54Z</time>
      </trkpt>
      <trkpt lat="45.46043" lon="4.06922">
        <ele>767.75</ele>
        <time>2024-04-28T09:46:32Z</time>
      </trkpt>
      <trkpt lat="45.46062" lon="4.06953">
        <ele>767.27</ele>
        <time>2024-04-28T09:46:11Z</time>
      </trkpt>
      <trkpt lat="45.46079" lon="4.0698">
        <ele>764.87</ele>
        <time>2024-04-28T09:45:55Z</time>
      </trkpt>
      <trkpt lat="45.461" lon="4.07013">
        <ele>762.94</ele>
        <time>2024-04-28T09:45:36Z</time>
      </trkpt>
      <trkpt lat="45.46134" lon="4.07064">
        <ele>761.5</ele>
        <time>2024-04-28T09:45:20Z</time>
      </trkpt>
      <trkpt lat="45.46164" lon="4.07106">
        <ele>759.58</ele>
        <time>2024-04-28T09:45:06Z</time>
      </trkpt>
      <trkpt lat="45.46184" lon="4.0714">
        <ele>760.06</ele>
        <time>2024-04-28T09:44:53Z</time>
      </trkpt>
      <trkpt lat="45.46207" lon="4.07159">
        <ele>760.06</ele>
        <time>2024-04-28T09:44:38Z</time>
      </trkpt>
      <trkpt lat="45.46238" lon="4.07194">
        <ele>759.58</ele>
        <time>2024-04-28T09:44:21Z</time>
      </trkpt>
      <trkpt lat="45.46259" lon="4.0723">
        <ele>759.58</ele>
        <time>2024-04-28T09:44:01Z</time>
      </trkpt>
      <trkpt lat="45.46278" lon="4.07266">
        <ele>758.14</ele>
        <time>2024-04-28T09:43:41Z</time>
      </trkpt>
      <trkpt lat="45.46297" lon="4.07307">
        <ele>757.18</ele>
        <time>2024-04-28T09:43:19Z</time>
      </trkpt>
      <trkpt lat="45.46314" lon="4.07339">
        <ele>759.58</ele>
        <time>2024-04-28T09:43:01Z</time>
      </trkpt>
      <trkpt lat="45.4633" lon="4.07376">
        <ele>758.62</ele>
        <time>2024-04-28T09:42:41Z</time>
      </trkpt>
      <trkpt lat="45.46347" lon="4.07411">
        <ele>757.66</ele>
        <time>2024-04-28T09:42:24Z</time>
      </trkpt>
      <trkpt lat="45.46358" lon="4.0744">
        <ele>755.73</ele>
        <time>2024-04-28T09:42:06Z</time>
      </trkpt>
      <trkpt lat="45.46366" lon="4.07476">
        <ele>757.18</ele>
        <time>2024-04-28T09:41:48Z</time>
      </trkpt>
      <trkpt lat="45.46378" lon="4.07519">
        <ele>756.21</ele>
        <time>2024-04-28T09:41:27Z</time>
      </trkpt>
      <trkpt lat="45.46383" lon="4.07557">
        <ele>756.21</ele>
        <time>2024-04-28T09:41:08Z</time>
      </trkpt>
      <trkpt lat="45.46387" lon="4.07591">
        <ele>754.29</ele>
        <time>2024-04-28T09:40:50Z</time>
      </trkpt>
      <trkpt lat="45.4639" lon="4.07634">
        <ele>751.89</ele>
        <time>2024-04-28T09:40:28Z</time>
      </trkpt>
      <trkpt lat="45.46391" lon="4.07669">
        <ele>747.08</ele>
        <time>2024-04-28T09:40:10Z</time>
      </trkpt>
      <trkpt lat="45.46392" lon="4.07716">
        <ele>739.39</ele>
        <time>2024-04-28T09:39:57Z</time>
      </trkpt>
      <trkpt lat="45.46394" lon="4.07797">
        <ele>734.1</ele>
        <time>2024-04-28T09:39:40Z</time>
      </trkpt>
      <trkpt lat="45.46394" lon="4.07848">
        <ele>726.89</ele>
        <time>2024-04-28T09:39:17Z</time>
      </trkpt>
      <trkpt lat="45.46389" lon="4.07893">
        <ele>728.34</ele>
        <time>2024-04-28T09:38:58Z</time>
      </trkpt>
      <trkpt lat="45.4638" lon="4.0793">
        <ele>728.34</ele>
        <time>2024-04-28T09:38:41Z</time>
      </trkpt>
      <trkpt lat="45.46378" lon="4.07937">
        <ele>728.82</ele>
        <time>2024-04-28T09:38:37Z</time>
      </trkpt>
      <trkpt lat="45.46365" lon="4.07976">
        <ele>733.14</ele>
        <time>2024-04-28T09:38:16Z</time>
      </trkpt>
      <trkpt lat="45.46353" lon="4.08013">
        <ele>736.51</ele>
        <time>2024-04-28T09:37:54Z</time>
      </trkpt>
      <trkpt lat="45.46338" lon="4.08036">
        <ele>741.31</ele>
        <time>2024-04-28T09:37:36Z</time>
      </trkpt>
      <trkpt lat="45.46319" lon="4.08071">
        <ele>740.83</ele>
        <time>2024-04-28T09:37:14Z</time>
      </trkpt>
      <trkpt lat="45.46302" lon="4.08102">
        <ele>736.99</ele>
        <time>2024-04-28T09:36:55Z</time>
      </trkpt>
      <trkpt lat="45.4628" lon="4.08134">
        <ele>736.99</ele>
        <time>2024-04-28T09:36:34Z</time>
      </trkpt>
      <trkpt lat="45.46279" lon="4.08135">
        <ele>736.99</ele>
        <time>2024-04-28T09:36:33Z</time>
      </trkpt>
      <trkpt lat="45.46278" lon="4.08136">
        <ele>736.99</ele>
        <time>2024-04-28T09:36:32Z</time>
      </trkpt>
      <trkpt lat="45.46277" lon="4.08139">
        <ele>736.99</ele>
        <time>2024-04-28T09:36:30Z</time>
      </trkpt>
      <trkpt lat="45.46283" lon="4.08137">
        <ele>736.99</ele>
        <time>2024-04-28T09:36:14Z</time>
      </trkpt>
      <trkpt lat="45.46282" lon="4.08135">
        <ele>736.03</ele>
        <time>2024-04-28T09:35:53Z</time>
      </trkpt>
      <trkpt lat="45.46283" lon="4.08135">
        <ele>735.55</ele>
        <time>2024-04-28T09:35:33Z</time>
      </trkpt>
      <trkpt lat="45.4628" lon="4.08133">
        <ele>736.99</ele>
        <time>2024-04-28T09:35:21Z</time>
      </trkpt>
      <trkpt lat="45.46277" lon="4.0814">
        <ele>736.51</ele>
        <time>2024-04-28T09:35:09Z</time>
      </trkpt>
      <trkpt lat="45.46279" lon="4.08132">
        <ele>735.07</ele>
        <time>2024-04-28T09:34:51Z</time>
      </trkpt>
      <trkpt lat="45.46275" lon="4.08132">
        <ele>732.66</ele>
        <time>2024-04-28T09:34:32Z</time>
      </trkpt>
      <trkpt lat="45.46276" lon="4.0813">
        <ele>733.14</ele>
        <time>2024-04-28T09:34:10Z</time>
      </trkpt>
      <trkpt lat="45.46275" lon="4.08134">
        <ele>733.62</ele>
        <time>2024-04-28T09:33:55Z</time>
      </trkpt>
      <trkpt lat="45.46271" lon="4.08145">
        <ele>730.74</ele>
        <time>2024-04-28T09:33:41Z</time>
      </trkpt>
      <trkpt lat="45.46266" lon="4.08159">
        <ele>731.7</ele>
        <time>2024-04-28T09:33:24Z</time>
      </trkpt>
      <trkpt lat="45.46263" lon="4.08161">
        <ele>729.3</ele>
        <time>2024-04-28T09:32:55Z</time>
      </trkpt>
      <trkpt lat="45.46266" lon="4.08159">
        <ele>729.3</ele>
        <time>2024-04-28T09:32:29Z</time>
      </trkpt>
      <trkpt lat="45.46269" lon="4.08155">
        <ele>732.18</ele>
        <time>2024-04-28T09:32:03Z</time>
      </trkpt>
      <trkpt lat="45.46266" lon="4.08168">
        <ele>732.66</ele>
        <time>2024-04-28T09:31:33Z</time>
      </trkpt>
      <trkpt lat="45.46269" lon="4.08163">
        <ele>734.58</ele>
        <time>2024-04-28T09:31:08Z</time>
      </trkpt>
      <trkpt lat="45.46273" lon="4.08156">
        <ele>735.55</ele>
        <time>2024-04-28T09:30:49Z</time>
      </trkpt>
      <trkpt lat="45.46275" lon="4.08148">
        <ele>736.51</ele>
        <time>2024-04-28T09:30:37Z</time>
      </trkpt>
      <trkpt lat="45.46276" lon="4.08153">
        <ele>736.51</ele>
        <time>2024-04-28T09:30:23Z</time>
      </trkpt>
      <trkpt lat="45.46273" lon="4.08146">
        <ele>730.74</ele>
        <time>2024-04-28T09:29:49Z</time>
      </trkpt>
      <trkpt lat="45.46274" lon="4.0814">
        <ele>724.97</ele>
        <time>2024-04-28T09:29:19Z</time>
      </trkpt>
      <trkpt lat="45.46281" lon="4.08129">
        <ele>722.09</ele>
        <time>2024-04-28T09:29:03Z</time>
      </trkpt>
      <trkpt lat="45.4631" lon="4.08098">
        <ele>724.01</ele>
        <time>2024-04-28T09:28:41Z</time>
      </trkpt>
      <trkpt lat="45.4633" lon="4.08071">
        <ele>725.93</ele>
        <time>2024-04-28T09:28:23Z</time>
      </trkpt>
      <trkpt lat="45.46353" lon="4.08042">
        <ele>730.74</ele>
        <time>2024-04-28T09:28:02Z</time>
      </trkpt>
      <trkpt lat="45.46381" lon="4.08021">
        <ele>731.22</ele>
        <time>2024-04-28T09:27:42Z</time>
      </trkpt>
      <trkpt lat="45.46406" lon="4.08014">
        <ele>736.03</ele>
        <time>2024-04-28T09:27:21Z</time>
      </trkpt>
      <trkpt lat="45.4644" lon="4.07992">
        <ele>732.18</ele>
        <time>2024-04-28T09:26:54Z</time>
      </trkpt>
      <trkpt lat="45.46467" lon="4.07974">
        <ele>726.41</ele>
        <time>2024-04-28T09:26:34Z</time>
      </trkpt>
      <trkpt lat="45.46474" lon="4.07962">
        <ele>711.51</ele>
        <time>2024-04-28T09:26:10Z</time>
      </trkpt>
      <trkpt lat="45.46486" lon="4.07954">
        <ele>706.23</ele>
        <time>2024-04-28T09:25:50Z</time>
      </trkpt>
      <trkpt lat="45.46493" lon="4.07952">
        <ele>705.75</ele>
        <time>2024-04-28T09:25:21Z</time>
      </trkpt>
      <trkpt lat="45.46516" lon="4.07944">
        <ele>717.76</ele>
        <time>2024-04-28T09:25:00Z</time>
      </trkpt>
      <trkpt lat="45.46536" lon="4.07932">
        <ele>722.57</ele>
        <time>2024-04-28T09:24:42Z</time>
      </trkpt>
      <trkpt lat="45.46571" lon="4.07905">
        <ele>724.49</ele>
        <time>2024-04-28T09:24:18Z</time>
      </trkpt>
      <trkpt lat="45.46587" lon="4.07879">
        <ele>722.09</ele>
        <time>2024-04-28T09:24:01Z</time>
      </trkpt>
      <trkpt lat="45.46596" lon="4.07845">
        <ele>722.57</ele>
        <time>2024-04-28T09:23:42Z</time>
      </trkpt>
      <trkpt lat="45.46609" lon="4.07813">
        <ele>721.61</ele>
        <time>2024-04-28T09:23:23Z</time>
      </trkpt>
      <trkpt lat="45.46634" lon="4.07789">
        <ele>719.68</ele>
        <time>2024-04-28T09:23:01Z</time>
      </trkpt>
      <trkpt lat="45.46653" lon="4.07766">
        <ele>715.36</ele>
        <time>2024-04-28T09:22:42Z</time>
      </trkpt>
      <trkpt lat="45.46659" lon="4.07735">
        <ele>712.95</ele>
        <time>2024-04-28T09:22:25Z</time>
      </trkpt>
      <trkpt lat="45.46667" lon="4.07698">
        <ele>709.59</ele>
        <time>2024-04-28T09:22:06Z</time>
      </trkpt>
      <trkpt lat="45.46667" lon="4.07695">
        <ele>709.59</ele>
        <time>2024-04-28T09:22:05Z</time>
      </trkpt>
      <trkpt lat="45.46667" lon="4.07681">
        <ele>708.63</ele>
        <time>2024-04-28T09:21:58Z</time>
      </trkpt>
      <trkpt lat="45.46667" lon="4.07679">
        <ele>708.63</ele>
        <time>2024-04-28T09:21:57Z</time>
      </trkpt>
      <trkpt lat="45.46671" lon="4.07657">
        <ele>709.11</ele>
        <time>2024-04-28T09:21:43Z</time>
      </trkpt>
      <trkpt lat="45.46691" lon="4.07659">
        <ele>713.92</ele>
        <time>2024-04-28T09:21:25Z</time>
      </trkpt>
      <trkpt lat="45.46716" lon="4.07695">
        <ele>719.2</ele>
        <time>2024-04-28T09:21:04Z</time>
      </trkpt>
      <trkpt lat="45.46717" lon="4.07698">
        <ele>719.2</ele>
        <time>2024-04-28T09:21:03Z</time>
      </trkpt>
      <trkpt lat="45.46721" lon="4.07741">
        <ele>712.47</ele>
        <time>2024-04-28T09:20:45Z</time>
      </trkpt>
      <trkpt lat="45.46734" lon="4.07802">
        <ele>707.19</ele>
        <time>2024-04-28T09:20:31Z</time>
      </trkpt>
      <trkpt lat="45.4675" lon="4.079">
        <ele>700.94</ele>
        <time>2024-04-28T09:20:15Z</time>
      </trkpt>
      <trkpt lat="45.46768" lon="4.08027">
        <ele>689.4</ele>
        <time>2024-04-28T09:19:57Z</time>
      </trkpt>
      <trkpt lat="45.46769" lon="4.08034">
        <ele>688.44</ele>
        <time>2024-04-28T09:19:56Z</time>
      </trkpt>
      <trkpt lat="45.46773" lon="4.08062">
        <ele>686.04</ele>
        <time>2024-04-28T09:19:52Z</time>
      </trkpt>
      <trkpt lat="45.46776" lon="4.08149">
        <ele>680.75</ele>
        <time>2024-04-28T09:19:35Z</time>
      </trkpt>
      <trkpt lat="45.46784" lon="4.08233">
        <ele>674.98</ele>
        <time>2024-04-28T09:19:16Z</time>
      </trkpt>
      <trkpt lat="45.46782" lon="4.08302">
        <ele>671.62</ele>
        <time>2024-04-28T09:19:00Z</time>
      </trkpt>
      <trkpt lat="45.46773" lon="4.08371">
        <ele>671.14</ele>
        <time>2024-04-28T09:18:41Z</time>
      </trkpt>
      <trkpt lat="45.46759" lon="4.08407">
        <ele>674.02</ele>
        <time>2024-04-28T09:18:24Z</time>
      </trkpt>
      <trkpt lat="45.46756" lon="4.08411">
        <ele>674.5</ele>
        <time>2024-04-28T09:18:20Z</time>
      </trkpt>
      <trkpt lat="45.46737" lon="4.08456">
        <ele>674.02</ele>
        <time>2024-04-28T09:17:56Z</time>
      </trkpt>
      <trkpt lat="45.46736" lon="4.08458">
        <ele>674.02</ele>
        <time>2024-04-28T09:17:55Z</time>
      </trkpt>
      <trkpt lat="45.4673" lon="4.08476">
        <ele>673.06</ele>
        <time>2024-04-28T09:17:47Z</time>
      </trkpt>
      <trkpt lat="45.46732" lon="4.08524">
        <ele>670.66</ele>
        <time>2024-04-28T09:17:26Z</time>
      </trkpt>
      <trkpt lat="45.46731" lon="4.08566">
        <ele>666.33</ele>
        <time>2024-04-28T09:17:08Z</time>
      </trkpt>
      <trkpt lat="45.46715" lon="4.08602">
        <ele>663.93</ele>
        <time>2024-04-28T09:16:50Z</time>
      </trkpt>
      <trkpt lat="45.46687" lon="4.08655">
        <ele>661.52</ele>
        <time>2024-04-28T09:16:31Z</time>
      </trkpt>
      <trkpt lat="45.46658" lon="4.08703">
        <ele>660.08</ele>
        <time>2024-04-28T09:16:16Z</time>
      </trkpt>
      <trkpt lat="45.46626" lon="4.0874">
        <ele>659.6</ele>
        <time>2024-04-28T09:15:50Z</time>
      </trkpt>
      <trkpt lat="45.46599" lon="4.08768">
        <ele>658.64</ele>
        <time>2024-04-28T09:15:28Z</time>
      </trkpt>
      <trkpt lat="45.4658" lon="4.08789">
        <ele>654.31</ele>
        <time>2024-04-28T09:15:11Z</time>
      </trkpt>
      <trkpt lat="45.46564" lon="4.0882">
        <ele>648.07</ele>
        <time>2024-04-28T09:14:53Z</time>
      </trkpt>
      <trkpt lat="45.46567" lon="4.08851">
        <ele>644.22</ele>
        <time>2024-04-28T09:14:40Z</time>
      </trkpt>
      <trkpt lat="45.46576" lon="4.0889">
        <ele>644.22</ele>
        <time>2024-04-28T09:14:22Z</time>
      </trkpt>
      <trkpt lat="45.46591" lon="4.08918">
        <ele>644.22</ele>
        <time>2024-04-28T09:14:07Z</time>
      </trkpt>
      <trkpt lat="45.46593" lon="4.0892">
        <ele>644.22</ele>
        <time>2024-04-28T09:14:06Z</time>
      </trkpt>
      <trkpt lat="45.46598" lon="4.08932">
        <ele>644.22</ele>
        <time>2024-04-28T09:13:59Z</time>
      </trkpt>
      <trkpt lat="45.46605" lon="4.08976">
        <ele>643.74</ele>
        <time>2024-04-28T09:13:40Z</time>
      </trkpt>
      <trkpt lat="45.46615" lon="4.09017">
        <ele>638.93</ele>
        <time>2024-04-28T09:13:17Z</time>
      </trkpt>
      <trkpt lat="45.46627" lon="4.09064">
        <ele>634.61</ele>
        <time>2024-04-28T09:12:53Z</time>
      </trkpt>
      <trkpt lat="45.46624" lon="4.09092">
        <ele>632.68</ele>
        <time>2024-04-28T09:12:38Z</time>
      </trkpt>
      <trkpt lat="45.46634" lon="4.09133">
        <ele>633.17</ele>
        <time>2024-04-28T09:12:17Z</time>
      </trkpt>
      <trkpt lat="45.46654" lon="4.09163">
        <ele>633.65</ele>
        <time>2024-04-28T09:11:57Z</time>
      </trkpt>
      <trkpt lat="45.46675" lon="4.09193">
        <ele>633.17</ele>
        <time>2024-04-28T09:11:39Z</time>
      </trkpt>
      <trkpt lat="45.46678" lon="4.09196">
        <ele>632.68</ele>
        <time>2024-04-28T09:11:29Z</time>
      </trkpt>
      <trkpt lat="45.46685" lon="4.09201">
        <ele>630.76</ele>
        <time>2024-04-28T09:11:14Z</time>
      </trkpt>
      <trkpt lat="45.46686" lon="4.09201">
        <ele>629.8</ele>
        <time>2024-04-28T09:10:51Z</time>
      </trkpt>
      <trkpt lat="45.46687" lon="4.09197">
        <ele>629.8</ele>
        <time>2024-04-28T09:10:32Z</time>
      </trkpt>
      <trkpt lat="45.46685" lon="4.09195">
        <ele>629.8</ele>
        <time>2024-04-28T09:10:04Z</time>
      </trkpt>
      <trkpt lat="45.46684" lon="4.09195">
        <ele>629.8</ele>
        <time>2024-04-28T09:09:34Z</time>
      </trkpt>
      <trkpt lat="45.46684" lon="4.09194">
        <ele>631.24</ele>
        <time>2024-04-28T09:09:00Z</time>
      </trkpt>
      <trkpt lat="45.46683" lon="4.09196">
        <ele>635.09</ele>
        <time>2024-04-28T09:08:25Z</time>
      </trkpt>
      <trkpt lat="45.46681" lon="4.09196">
        <ele>637.97</ele>
        <time>2024-04-28T09:08:00Z</time>
      </trkpt>
      <trkpt lat="45.46684" lon="4.09203">
        <ele>638.45</ele>
        <time>2024-04-28T09:07:39Z</time>
      </trkpt>
      <trkpt lat="45.46683" lon="4.09201">
        <ele>636.53</ele>
        <time>2024-04-28T09:07:12Z</time>
      </trkpt>
      <trkpt lat="45.46683" lon="4.092">
        <ele>632.68</ele>
        <time>2024-04-28T09:06:35Z</time>
      </trkpt>
      <trkpt lat="45.46682" lon="4.092">
        <ele>630.76</ele>
        <time>2024-04-28T09:06:00Z</time>
      </trkpt>
      <trkpt lat="45.46683" lon="4.09198">
        <ele>628.84</ele>
        <time>2024-04-28T09:05:33Z</time>
      </trkpt>
      <trkpt lat="45.46683" lon="4.09199">
        <ele>628.36</ele>
        <time>2024-04-28T09:05:09Z</time>
      </trkpt>
      <trkpt lat="45.46683" lon="4.09197">
        <ele>631.24</ele>
        <time>2024-04-28T09:04:37Z</time>
      </trkpt>
      <trkpt lat="45.46683" lon="4.09198">
        <ele>632.2</ele>
        <time>2024-04-28T09:04:08Z</time>
      </trkpt>
      <trkpt lat="45.46681" lon="4.09196">
        <ele>631.24</ele>
        <time>2024-04-28T09:03:47Z</time>
      </trkpt>
      <trkpt lat="45.46684" lon="4.09199">
        <ele>629.32</ele>
        <time>2024-04-28T09:03:20Z</time>
      </trkpt>
      <trkpt lat="45.46686" lon="4.09196">
        <ele>629.32</ele>
        <time>2024-04-28T09:03:03Z</time>
      </trkpt>
      <trkpt lat="45.46688" lon="4.09196">
        <ele>630.76</ele>
        <time>2024-04-28T09:02:25Z</time>
      </trkpt>
      <trkpt lat="45.46685" lon="4.09197">
        <ele>630.28</ele>
        <time>2024-04-28T09:01:46Z</time>
      </trkpt>
      <trkpt lat="45.46684" lon="4.09192">
        <ele>629.32</ele>
        <time>2024-04-28T09:01:10Z</time>
      </trkpt>
      <trkpt lat="45.46685" lon="4.09192">
        <ele>628.84</ele>
        <time>2024-04-28T09:00:30Z</time>
      </trkpt>
      <trkpt lat="45.46685" lon="4.09193">
        <ele>629.32</ele>
        <time>2024-04-28T08:59:41Z</time>
      </trkpt>
      <trkpt lat="45.46683" lon="4.0919">
        <ele>630.76</ele>
        <time>2024-04-28T08:59:14Z</time>
      </trkpt>
      <trkpt lat="45.46682" lon="4.09191">
        <ele>630.28</ele>
        <time>2024-04-28T08:58:36Z</time>
      </trkpt>
      <trkpt lat="45.4668" lon="4.09192">
        <ele>630.28</ele>
        <time>2024-04-28T08:57:58Z</time>
      </trkpt>
      <trkpt lat="45.46679" lon="4.09192">
        <ele>629.32</ele>
        <time>2024-04-28T08:57:30Z</time>
      </trkpt>
      <trkpt lat="45.46677" lon="4.09194">
        <ele>632.68</ele>
        <time>2024-04-28T08:57:04Z</time>
      </trkpt>
      <trkpt lat="45.46679" lon="4.09194">
        <ele>630.76</ele>
        <time>2024-04-28T08:56:37Z</time>
      </trkpt>
      <trkpt lat="45.4668" lon="4.09192">
        <ele>627.88</ele>
        <time>2024-04-28T08:56:05Z</time>
      </trkpt>
      <trkpt lat="45.46679" lon="4.0919">
        <ele>625.96</ele>
        <time>2024-04-28T08:55:37Z</time>
      </trkpt>
      <trkpt lat="45.46681" lon="4.09192">
        <ele>624.03</ele>
        <time>2024-04-28T08:55:09Z</time>
      </trkpt>
      <trkpt lat="45.4668" lon="4.0919">
        <ele>624.99</ele>
        <time>2024-04-28T08:54:39Z</time>
      </trkpt>
      <trkpt lat="45.46677" lon="4.09191">
        <ele>624.99</ele>
        <time>2024-04-28T08:54:15Z</time>
      </trkpt>
      <trkpt lat="45.46662" lon="4.0917">
        <ele>626.92</ele>
        <time>2024-04-28T08:53:57Z</time>
      </trkpt>
      <trkpt lat="45.46636" lon="4.09137">
        <ele>626.44</ele>
        <time>2024-04-28T08:53:33Z</time>
      </trkpt>
      <trkpt lat="45.46635" lon="4.09136">
        <ele>626.92</ele>
        <time>2024-04-28T08:53:32Z</time>
      </trkpt>
      <trkpt lat="45.46629" lon="4.09124">
        <ele>625.47</ele>
        <time>2024-04-28T08:53:25Z</time>
      </trkpt>
      <trkpt lat="45.46601" lon="4.09143">
        <ele>622.11</ele>
        <time>2024-04-28T08:53:03Z</time>
      </trkpt>
      <trkpt lat="45.46579" lon="4.09163">
        <ele>617.78</ele>
        <time>2024-04-28T08:52:43Z</time>
      </trkpt>
      <trkpt lat="45.4656" lon="4.09177">
        <ele>615.86</ele>
        <time>2024-04-28T08:52:32Z</time>
      </trkpt>
      <trkpt lat="45.46523" lon="4.09208">
        <ele>615.38</ele>
        <time>2024-04-28T08:52:21Z</time>
      </trkpt>
      <trkpt lat="45.4651" lon="4.09249">
        <ele>615.86</ele>
        <time>2024-04-28T08:52:05Z</time>
      </trkpt>
      <trkpt lat="45.46497" lon="4.09283">
        <ele>616.82</ele>
        <time>2024-04-28T08:51:49Z</time>
      </trkpt>
      <trkpt lat="45.4649" lon="4.09324">
        <ele>619.71</ele>
        <time>2024-04-28T08:51:32Z</time>
      </trkpt>
      <trkpt lat="45.46477" lon="4.09368">
        <ele>624.51</ele>
        <time>2024-04-28T08:51:12Z</time>
      </trkpt>
      <trkpt lat="45.46466" lon="4.09396">
        <ele>624.99</ele>
        <time>2024-04-28T08:50:57Z</time>
      </trkpt>
      <trkpt lat="45.46451" lon="4.09434">
        <ele>621.15</ele>
        <time>2024-04-28T08:50:35Z</time>
      </trkpt>
      <trkpt lat="45.46432" lon="4.0946">
        <ele>615.86</ele>
        <time>2024-04-28T08:50:16Z</time>
      </trkpt>
      <trkpt lat="45.46394" lon="4.09468">
        <ele>608.65</ele>
        <time>2024-04-28T08:49:54Z</time>
      </trkpt>
      <trkpt lat="45.46393" lon="4.09467">
        <ele>608.65</ele>
        <time>2024-04-28T08:49:53Z</time>
      </trkpt>
      <trkpt lat="45.46369" lon="4.09464">
        <ele>604.81</ele>
        <time>2024-04-28T08:49:36Z</time>
      </trkpt>
      <trkpt lat="45.4635" lon="4.09475">
        <ele>601.92</ele>
        <time>2024-04-28T08:49:21Z</time>
      </trkpt>
      <trkpt lat="45.46348" lon="4.09476">
        <ele>601.44</ele>
        <time>2024-04-28T08:49:20Z</time>
      </trkpt>
      <trkpt lat="45.46347" lon="4.09477">
        <ele>601.44</ele>
        <time>2024-04-28T08:49:19Z</time>
      </trkpt>
      <trkpt lat="45.46314" lon="4.09473">
        <ele>600.48</ele>
        <time>2024-04-28T08:48:56Z</time>
      </trkpt>
      <trkpt lat="45.46278" lon="4.09461">
        <ele>593.27</ele>
        <time>2024-04-28T08:48:32Z</time>
      </trkpt>
      <trkpt lat="45.46275" lon="4.09461">
        <ele>592.79</ele>
        <time>2024-04-28T08:48:31Z</time>
      </trkpt>
      <trkpt lat="45.46273" lon="4.09461">
        <ele>592.79</ele>
        <time>2024-04-28T08:48:30Z</time>
      </trkpt>
      <trkpt lat="45.46272" lon="4.09461">
        <ele>592.79</ele>
        <time>2024-04-28T08:48:29Z</time>
      </trkpt>
      <trkpt lat="45.46269" lon="4.0946">
        <ele>592.31</ele>
        <time>2024-04-28T08:48:28Z</time>
      </trkpt>
      <trkpt lat="45.46245" lon="4.09454">
        <ele>587.5</ele>
        <time>2024-04-28T08:48:17Z</time>
      </trkpt>
      <trkpt lat="45.46221" lon="4.09433">
        <ele>589.91</ele>
        <time>2024-04-28T08:47:59Z</time>
      </trkpt>
      <trkpt lat="45.46219" lon="4.09432">
        <ele>590.39</ele>
        <time>2024-04-28T08:47:58Z</time>
      </trkpt>
      <trkpt lat="45.46217" lon="4.09432">
        <ele>590.39</ele>
        <time>2024-04-28T08:47:57Z</time>
      </trkpt>
      <trkpt lat="45.46215" lon="4.09432">
        <ele>590.39</ele>
        <time>2024-04-28T08:47:56Z</time>
      </trkpt>
      <trkpt lat="45.46212" lon="4.09432">
        <ele>589.91</ele>
        <time>2024-04-28T08:47:55Z</time>
      </trkpt>
      <trkpt lat="45.46205" lon="4.09432">
        <ele>591.35</ele>
        <time>2024-04-28T08:47:52Z</time>
      </trkpt>
      <trkpt lat="45.46202" lon="4.09432">
        <ele>591.83</ele>
        <time>2024-04-28T08:47:50Z</time>
      </trkpt>
      <trkpt lat="45.46169" lon="4.09422">
        <ele>594.23</ele>
        <time>2024-04-28T08:47:32Z</time>
      </trkpt>
      <trkpt lat="45.46152" lon="4.09449">
        <ele>598.56</ele>
        <time>2024-04-28T08:47:14Z</time>
      </trkpt>
      <trkpt lat="45.46172" lon="4.09467">
        <ele>600.96</ele>
        <time>2024-04-28T08:46:56Z</time>
      </trkpt>
      <trkpt lat="45.46193" lon="4.09495">
        <ele>599.52</ele>
        <time>2024-04-28T08:46:36Z</time>
      </trkpt>
      <trkpt lat="45.46208" lon="4.09527">
        <ele>600</ele>
        <time>2024-04-28T08:46:15Z</time>
      </trkpt>
      <trkpt lat="45.46209" lon="4.09529">
        <ele>600</ele>
        <time>2024-04-28T08:46:14Z</time>
      </trkpt>
      <trkpt lat="45.46219" lon="4.09555">
        <ele>601.44</ele>
        <time>2024-04-28T08:46:01Z</time>
      </trkpt>
      <trkpt lat="45.46233" lon="4.09591">
        <ele>602.4</ele>
        <time>2024-04-28T08:45:43Z</time>
      </trkpt>
      <trkpt lat="45.46245" lon="4.09649">
        <ele>601.92</ele>
        <time>2024-04-28T08:45:28Z</time>
      </trkpt>
      <trkpt lat="45.46273" lon="4.09682">
        <ele>603.36</ele>
        <time>2024-04-28T08:45:07Z</time>
      </trkpt>
      <trkpt lat="45.46298" lon="4.09711">
        <ele>607.69</ele>
        <time>2024-04-28T08:44:49Z</time>
      </trkpt>
      <trkpt lat="45.46323" lon="4.09722">
        <ele>614.9</ele>
        <time>2024-04-28T08:44:30Z</time>
      </trkpt>
      <trkpt lat="45.4635" lon="4.09736">
        <ele>619.23</ele>
        <time>2024-04-28T08:44:10Z</time>
      </trkpt>
      <trkpt lat="45.46353" lon="4.09739">
        <ele>620.19</ele>
        <time>2024-04-28T08:44:08Z</time>
      </trkpt>
      <trkpt lat="45.46364" lon="4.09775">
        <ele>625.47</ele>
        <time>2024-04-28T08:43:50Z</time>
      </trkpt>
      <trkpt lat="45.46364" lon="4.09797">
        <ele>626.92</ele>
        <time>2024-04-28T08:43:40Z</time>
      </trkpt>
      <trkpt lat="45.46351" lon="4.0984">
        <ele>630.76</ele>
        <time>2024-04-28T08:43:19Z</time>
      </trkpt>
      <trkpt lat="45.46343" lon="4.09898">
        <ele>630.28</ele>
        <time>2024-04-28T08:42:54Z</time>
      </trkpt>
      <trkpt lat="45.46336" lon="4.09946">
        <ele>632.2</ele>
        <time>2024-04-28T08:42:31Z</time>
      </trkpt>
      <trkpt lat="45.46333" lon="4.09962">
        <ele>633.65</ele>
        <time>2024-04-28T08:42:23Z</time>
      </trkpt>
      <trkpt lat="45.46317" lon="4.09995">
        <ele>635.57</ele>
        <time>2024-04-28T08:42:04Z</time>
      </trkpt>
      <trkpt lat="45.46303" lon="4.10034">
        <ele>633.65</ele>
        <time>2024-04-28T08:41:43Z</time>
      </trkpt>
      <trkpt lat="45.46292" lon="4.10071">
        <ele>632.2</ele>
        <time>2024-04-28T08:41:29Z</time>
      </trkpt>
      <trkpt lat="45.46271" lon="4.10118">
        <ele>628.36</ele>
        <time>2024-04-28T08:41:09Z</time>
      </trkpt>
      <trkpt lat="45.4624" lon="4.1014">
        <ele>625.96</ele>
        <time>2024-04-28T08:40:47Z</time>
      </trkpt>
      <trkpt lat="45.4622" lon="4.10161">
        <ele>625.96</ele>
        <time>2024-04-28T08:40:28Z</time>
      </trkpt>
      <trkpt lat="45.46197" lon="4.10185">
        <ele>624.03</ele>
        <time>2024-04-28T08:40:09Z</time>
      </trkpt>
      <trkpt lat="45.46167" lon="4.10205">
        <ele>620.67</ele>
        <time>2024-04-28T08:39:47Z</time>
      </trkpt>
      <trkpt lat="45.46133" lon="4.10189">
        <ele>619.71</ele>
        <time>2024-04-28T08:39:25Z</time>
      </trkpt>
      <trkpt lat="45.46102" lon="4.10187">
        <ele>620.19</ele>
        <time>2024-04-28T08:39:06Z</time>
      </trkpt>
      <trkpt lat="45.46073" lon="4.10218">
        <ele>623.55</ele>
        <time>2024-04-28T08:38:46Z</time>
      </trkpt>
      <trkpt lat="45.46046" lon="4.10254">
        <ele>625.96</ele>
        <time>2024-04-28T08:38:31Z</time>
      </trkpt>
      <trkpt lat="45.46027" lon="4.10291">
        <ele>625.96</ele>
        <time>2024-04-28T08:38:16Z</time>
      </trkpt>
      <trkpt lat="45.46006" lon="4.10313">
        <ele>623.55</ele>
        <time>2024-04-28T08:37:59Z</time>
      </trkpt>
      <trkpt lat="45.45972" lon="4.10333">
        <ele>622.11</ele>
        <time>2024-04-28T08:37:37Z</time>
      </trkpt>
      <trkpt lat="45.45945" lon="4.10342">
        <ele>624.99</ele>
        <time>2024-04-28T08:37:22Z</time>
      </trkpt>
      <trkpt lat="45.45918" lon="4.10366">
        <ele>628.84</ele>
        <time>2024-04-28T08:37:01Z</time>
      </trkpt>
      <trkpt lat="45.45898" lon="4.10388">
        <ele>631.24</ele>
        <time>2024-04-28T08:36:44Z</time>
      </trkpt>
      <trkpt lat="45.45873" lon="4.10396">
        <ele>632.2</ele>
        <time>2024-04-28T08:36:27Z</time>
      </trkpt>
      <trkpt lat="45.45844" lon="4.1039">
        <ele>635.09</ele>
        <time>2024-04-28T08:36:09Z</time>
      </trkpt>
      <trkpt lat="45.4582" lon="4.10388">
        <ele>639.41</ele>
        <time>2024-04-28T08:35:52Z</time>
      </trkpt>
      <trkpt lat="45.45817" lon="4.10392">
        <ele>640.38</ele>
        <time>2024-04-28T08:35:48Z</time>
      </trkpt>
      <trkpt lat="45.45814" lon="4.10431">
        <ele>643.26</ele>
        <time>2024-04-28T08:35:28Z</time>
      </trkpt>
      <trkpt lat="45.45807" lon="4.10481">
        <ele>646.62</ele>
        <time>2024-04-28T08:35:04Z</time>
      </trkpt>
      <trkpt lat="45.45793" lon="4.10518">
        <ele>649.03</ele>
        <time>2024-04-28T08:34:43Z</time>
      </trkpt>
      <trkpt lat="45.4579" lon="4.1055">
        <ele>648.55</ele>
        <time>2024-04-28T08:34:26Z</time>
      </trkpt>
      <trkpt lat="45.4579" lon="4.10551">
        <ele>648.55</ele>
        <time>2024-04-28T08:34:25Z</time>
      </trkpt>
      <trkpt lat="45.45791" lon="4.10553">
        <ele>648.55</ele>
        <time>2024-04-28T08:34:24Z</time>
      </trkpt>
      <trkpt lat="45.45792" lon="4.10553">
        <ele>648.55</ele>
        <time>2024-04-28T08:34:23Z</time>
      </trkpt>
      <trkpt lat="45.45793" lon="4.10554">
        <ele>648.55</ele>
        <time>2024-04-28T08:34:22Z</time>
      </trkpt>
      <trkpt lat="45.45794" lon="4.10555">
        <ele>648.07</ele>
        <time>2024-04-28T08:34:21Z</time>
      </trkpt>
      <trkpt lat="45.45795" lon="4.10557">
        <ele>648.07</ele>
        <time>2024-04-28T08:34:20Z</time>
      </trkpt>
      <trkpt lat="45.45795" lon="4.10559">
        <ele>648.07</ele>
        <time>2024-04-28T08:34:19Z</time>
      </trkpt>
      <trkpt lat="45.45791" lon="4.10569">
        <ele>647.1</ele>
        <time>2024-04-28T08:34:13Z</time>
      </trkpt>
      <trkpt lat="45.4579" lon="4.10572">
        <ele>647.1</ele>
        <time>2024-04-28T08:34:12Z</time>
      </trkpt>
      <trkpt lat="45.45791" lon="4.10578">
        <ele>646.62</ele>
        <time>2024-04-28T08:34:09Z</time>
      </trkpt>
      <trkpt lat="45.45792" lon="4.1058">
        <ele>646.62</ele>
        <time>2024-04-28T08:34:08Z</time>
      </trkpt>
      <trkpt lat="45.45793" lon="4.10582">
        <ele>646.62</ele>
        <time>2024-04-28T08:34:07Z</time>
      </trkpt>
      <trkpt lat="45.45794" lon="4.10583">
        <ele>646.62</ele>
        <time>2024-04-28T08:34:06Z</time>
      </trkpt>
      <trkpt lat="45.45795" lon="4.10585">
        <ele>647.1</ele>
        <time>2024-04-28T08:34:05Z</time>
      </trkpt>
      <trkpt lat="45.45797" lon="4.10586">
        <ele>647.1</ele>
        <time>2024-04-28T08:34:04Z</time>
      </trkpt>
      <trkpt lat="45.45799" lon="4.10588">
        <ele>647.1</ele>
        <time>2024-04-28T08:34:03Z</time>
      </trkpt>
      <trkpt lat="45.458" lon="4.1059">
        <ele>646.62</ele>
        <time>2024-04-28T08:34:02Z</time>
      </trkpt>
      <trkpt lat="45.45802" lon="4.1062">
        <ele>645.18</ele>
        <time>2024-04-28T08:33:50Z</time>
      </trkpt>
      <trkpt lat="45.45797" lon="4.10654">
        <ele>644.22</ele>
        <time>2024-04-28T08:33:37Z</time>
      </trkpt>
      <trkpt lat="45.4577" lon="4.10669">
        <ele>644.7</ele>
        <time>2024-04-28T08:33:23Z</time>
      </trkpt>
      <trkpt lat="45.4574" lon="4.1066">
        <ele>642.78</ele>
        <time>2024-04-28T08:33:04Z</time>
      </trkpt>
      <trkpt lat="45.45702" lon="4.10658">
        <ele>641.82</ele>
        <time>2024-04-28T08:32:41Z</time>
      </trkpt>
      <trkpt lat="45.45667" lon="4.10668">
        <ele>639.89</ele>
        <time>2024-04-28T08:32:17Z</time>
      </trkpt>
      <trkpt lat="45.45636" lon="4.10685">
        <ele>635.09</ele>
        <time>2024-04-28T08:31:55Z</time>
      </trkpt>
      <trkpt lat="45.45634" lon="4.10711">
        <ele>631.24</ele>
        <time>2024-04-28T08:31:44Z</time>
      </trkpt>
      <trkpt lat="45.45637" lon="4.1076">
        <ele>626.92</ele>
        <time>2024-04-28T08:31:20Z</time>
      </trkpt>
      <trkpt lat="45.45637" lon="4.1077">
        <ele>625.47</ele>
        <time>2024-04-28T08:31:16Z</time>
      </trkpt>
      <trkpt lat="45.45636" lon="4.10813">
        <ele>621.63</ele>
        <time>2024-04-28T08:30:57Z</time>
      </trkpt>
      <trkpt lat="45.45624" lon="4.10848">
        <ele>621.63</ele>
        <time>2024-04-28T08:30:40Z</time>
      </trkpt>
      <trkpt lat="45.45607" lon="4.10889">
        <ele>619.23</ele>
        <time>2024-04-28T08:30:18Z</time>
      </trkpt>
      <trkpt lat="45.45588" lon="4.10929">
        <ele>615.38</ele>
        <time>2024-04-28T08:29:56Z</time>
      </trkpt>
      <trkpt lat="45.45571" lon="4.10966">
        <ele>612.98</ele>
        <time>2024-04-28T08:29:41Z</time>
      </trkpt>
      <trkpt lat="45.45547" lon="4.10998">
        <ele>608.17</ele>
        <time>2024-04-28T08:29:21Z</time>
      </trkpt>
      <trkpt lat="45.45522" lon="4.11033">
        <ele>608.65</ele>
        <time>2024-04-28T08:29:01Z</time>
      </trkpt>
      <trkpt lat="45.45502" lon="4.11074">
        <ele>612.02</ele>
        <time>2024-04-28T08:28:44Z</time>
      </trkpt>
      <trkpt lat="45.45489" lon="4.1112">
        <ele>610.57</ele>
        <time>2024-04-28T08:28:23Z</time>
      </trkpt>
      <trkpt lat="45.45487" lon="4.11142">
        <ele>610.09</ele>
        <time>2024-04-28T08:28:13Z</time>
      </trkpt>
      <trkpt lat="45.45496" lon="4.1118">
        <ele>611.06</ele>
        <time>2024-04-28T08:28:01Z</time>
      </trkpt>
      <trkpt lat="45.45483" lon="4.1121">
        <ele>613.94</ele>
        <time>2024-04-28T08:27:42Z</time>
      </trkpt>
      <trkpt lat="45.45461" lon="4.11244">
        <ele>615.38</ele>
        <time>2024-04-28T08:27:22Z</time>
      </trkpt>
      <trkpt lat="45.45459" lon="4.11245">
        <ele>615.86</ele>
        <time>2024-04-28T08:27:21Z</time>
      </trkpt>
      <trkpt lat="45.45458" lon="4.11246">
        <ele>615.86</ele>
        <time>2024-04-28T08:27:20Z</time>
      </trkpt>
      <trkpt lat="45.45457" lon="4.11248">
        <ele>615.38</ele>
        <time>2024-04-28T08:27:19Z</time>
      </trkpt>
      <trkpt lat="45.45455" lon="4.11249">
        <ele>615.38</ele>
        <time>2024-04-28T08:27:18Z</time>
      </trkpt>
      <trkpt lat="45.45453" lon="4.1125">
        <ele>615.38</ele>
        <time>2024-04-28T08:27:17Z</time>
      </trkpt>
      <trkpt lat="45.45427" lon="4.1125">
        <ele>617.78</ele>
        <time>2024-04-28T08:27:01Z</time>
      </trkpt>
      <trkpt lat="45.45391" lon="4.11249">
        <ele>621.15</ele>
        <time>2024-04-28T08:26:41Z</time>
      </trkpt>
      <trkpt lat="45.4536" lon="4.11255">
        <ele>627.4</ele>
        <time>2024-04-28T08:26:20Z</time>
      </trkpt>
      <trkpt lat="45.45329" lon="4.11266">
        <ele>627.88</ele>
        <time>2024-04-28T08:26:02Z</time>
      </trkpt>
      <trkpt lat="45.45322" lon="4.11279">
        <ele>629.8</ele>
        <time>2024-04-28T08:25:55Z</time>
      </trkpt>
      <trkpt lat="45.45318" lon="4.11295">
        <ele>631.72</ele>
        <time>2024-04-28T08:25:48Z</time>
      </trkpt>
      <trkpt lat="45.45312" lon="4.11338">
        <ele>639.41</ele>
        <time>2024-04-28T08:25:28Z</time>
      </trkpt>
      <trkpt lat="45.45312" lon="4.11341">
        <ele>639.41</ele>
        <time>2024-04-28T08:25:27Z</time>
      </trkpt>
      <trkpt lat="45.45304" lon="4.1136">
        <ele>643.74</ele>
        <time>2024-04-28T08:25:17Z</time>
      </trkpt>
      <trkpt lat="45.45275" lon="4.11362">
        <ele>650.47</ele>
        <time>2024-04-28T08:24:58Z</time>
      </trkpt>
      <trkpt lat="45.45273" lon="4.11361">
        <ele>650.95</ele>
        <time>2024-04-28T08:24:57Z</time>
      </trkpt>
      <trkpt lat="45.4526" lon="4.11364">
        <ele>653.83</ele>
        <time>2024-04-28T08:24:47Z</time>
      </trkpt>
      <trkpt lat="45.45238" lon="4.11376">
        <ele>657.68</ele>
        <time>2024-04-28T08:24:32Z</time>
      </trkpt>
      <trkpt lat="45.45207" lon="4.11363">
        <ele>660.56</ele>
        <time>2024-04-28T08:24:13Z</time>
      </trkpt>
      <trkpt lat="45.45174" lon="4.11357">
        <ele>662.01</ele>
        <time>2024-04-28T08:23:51Z</time>
      </trkpt>
      <trkpt lat="45.45142" lon="4.11357">
        <ele>662.01</ele>
        <time>2024-04-28T08:23:28Z</time>
      </trkpt>
      <trkpt lat="45.45104" lon="4.11361">
        <ele>660.08</ele>
        <time>2024-04-28T08:23:16Z</time>
      </trkpt>
      <trkpt lat="45.45015" lon="4.11335">
        <ele>657.68</ele>
        <time>2024-04-28T08:23:01Z</time>
      </trkpt>
      <trkpt lat="45.4501" lon="4.11332">
        <ele>657.2</ele>
        <time>2024-04-28T08:23:00Z</time>
      </trkpt>
      <trkpt lat="45.45004" lon="4.1133">
        <ele>657.2</ele>
        <time>2024-04-28T08:22:59Z</time>
      </trkpt>
      <trkpt lat="45.44999" lon="4.1133">
        <ele>657.2</ele>
        <time>2024-04-28T08:22:58Z</time>
      </trkpt>
      <trkpt lat="45.44994" lon="4.11332">
        <ele>656.72</ele>
        <time>2024-04-28T08:22:57Z</time>
      </trkpt>
      <trkpt lat="45.4499" lon="4.11336">
        <ele>656.24</ele>
        <time>2024-04-28T08:22:56Z</time>
      </trkpt>
      <trkpt lat="45.44988" lon="4.11341">
        <ele>656.24</ele>
        <time>2024-04-28T08:22:55Z</time>
      </trkpt>
      <trkpt lat="45.44974" lon="4.11404">
        <ele>654.8</ele>
        <time>2024-04-28T08:22:46Z</time>
      </trkpt>
      <trkpt lat="45.44949" lon="4.11517">
        <ele>651.43</ele>
        <time>2024-04-28T08:22:29Z</time>
      </trkpt>
      <trkpt lat="45.44933" lon="4.116">
        <ele>650.47</ele>
        <time>2024-04-28T08:22:14Z</time>
      </trkpt>
      <trkpt lat="45.44925" lon="4.11648">
        <ele>649.51</ele>
        <time>2024-04-28T08:21:51Z</time>
      </trkpt>
      <trkpt lat="45.44911" lon="4.11684">
        <ele>648.07</ele>
        <time>2024-04-28T08:21:32Z</time>
      </trkpt>
      <trkpt lat="45.44892" lon="4.11714">
        <ele>647.1</ele>
        <time>2024-04-28T08:21:11Z</time>
      </trkpt>
      <trkpt lat="45.44879" lon="4.11753">
        <ele>644.7</ele>
        <time>2024-04-28T08:20:49Z</time>
      </trkpt>
      <trkpt lat="45.44883" lon="4.11806">
        <ele>644.7</ele>
        <time>2024-04-28T08:20:25Z</time>
      </trkpt>
      <trkpt lat="45.44895" lon="4.1185">
        <ele>645.66</ele>
        <time>2024-04-28T08:20:00Z</time>
      </trkpt>
      <trkpt lat="45.44906" lon="4.11894">
        <ele>647.59</ele>
        <time>2024-04-28T08:19:38Z</time>
      </trkpt>
      <trkpt lat="45.44911" lon="4.11936">
        <ele>647.59</ele>
        <time>2024-04-28T08:19:22Z</time>
      </trkpt>
      <trkpt lat="45.44921" lon="4.11974">
        <ele>647.59</ele>
        <time>2024-04-28T08:19:00Z</time>
      </trkpt>
      <trkpt lat="45.44941" lon="4.12015">
        <ele>648.07</ele>
        <time>2024-04-28T08:18:37Z</time>
      </trkpt>
      <trkpt lat="45.44964" lon="4.12056">
        <ele>647.1</ele>
        <time>2024-04-28T08:18:11Z</time>
      </trkpt>
      <trkpt lat="45.4499" lon="4.12088">
        <ele>646.14</ele>
        <time>2024-04-28T08:17:45Z</time>
      </trkpt>
      <trkpt lat="45.44997" lon="4.12115">
        <ele>645.18</ele>
        <time>2024-04-28T08:17:29Z</time>
      </trkpt>
      <trkpt lat="45.44993" lon="4.12169">
        <ele>645.18</ele>
        <time>2024-04-28T08:17:07Z</time>
      </trkpt>
      <trkpt lat="45.44995" lon="4.12214">
        <ele>641.82</ele>
        <time>2024-04-28T08:16:48Z</time>
      </trkpt>
      <trkpt lat="45.45001" lon="4.12263">
        <ele>640.86</ele>
        <time>2024-04-28T08:16:23Z</time>
      </trkpt>
      <trkpt lat="45.45011" lon="4.12301">
        <ele>638.93</ele>
        <time>2024-04-28T08:16:04Z</time>
      </trkpt>
      <trkpt lat="45.45018" lon="4.12336">
        <ele>637.49</ele>
        <time>2024-04-28T08:15:48Z</time>
      </trkpt>
      <trkpt lat="45.45027" lon="4.12367">
        <ele>636.53</ele>
        <time>2024-04-28T08:15:32Z</time>
      </trkpt>
      <trkpt lat="45.4504" lon="4.12408">
        <ele>635.09</ele>
        <time>2024-04-28T08:15:13Z</time>
      </trkpt>
      <trkpt lat="45.45052" lon="4.12448">
        <ele>634.13</ele>
        <time>2024-04-28T08:14:55Z</time>
      </trkpt>
      <trkpt lat="45.45067" lon="4.12503">
        <ele>634.61</ele>
        <time>2024-04-28T08:14:31Z</time>
      </trkpt>
      <trkpt lat="45.45075" lon="4.1255">
        <ele>633.17</ele>
        <time>2024-04-28T08:14:08Z</time>
      </trkpt>
      <trkpt lat="45.45084" lon="4.12601">
        <ele>630.28</ele>
        <time>2024-04-28T08:13:46Z</time>
      </trkpt>
      <trkpt lat="45.4509" lon="4.12645">
        <ele>627.88</ele>
        <time>2024-04-28T08:13:28Z</time>
      </trkpt>
      <trkpt lat="45.45096" lon="4.12677">
        <ele>626.44</ele>
        <time>2024-04-28T08:13:15Z</time>
      </trkpt>
      <trkpt lat="45.45105" lon="4.12718">
        <ele>621.63</ele>
        <time>2024-04-28T08:12:58Z</time>
      </trkpt>
      <trkpt lat="45.45116" lon="4.12763">
        <ele>617.3</ele>
        <time>2024-04-28T08:12:35Z</time>
      </trkpt>
      <trkpt lat="45.45128" lon="4.12801">
        <ele>613.94</ele>
        <time>2024-04-28T08:12:22Z</time>
      </trkpt>
      <trkpt lat="45.45141" lon="4.12853">
        <ele>608.65</ele>
        <time>2024-04-28T08:11:55Z</time>
      </trkpt>
      <trkpt lat="45.45162" lon="4.12889">
        <ele>605.29</ele>
        <time>2024-04-28T08:11:33Z</time>
      </trkpt>
      <trkpt lat="45.45185" lon="4.12913">
        <ele>604.81</ele>
        <time>2024-04-28T08:11:17Z</time>
      </trkpt>
      <trkpt lat="45.45203" lon="4.12951">
        <ele>605.77</ele>
        <time>2024-04-28T08:11:00Z</time>
      </trkpt>
      <trkpt lat="45.45213" lon="4.1297">
        <ele>602.4</ele>
        <time>2024-04-28T08:10:40Z</time>
      </trkpt>
      <trkpt lat="45.45218" lon="4.12978">
        <ele>602.88</ele>
        <time>2024-04-28T08:10:30Z</time>
      </trkpt>
      <trkpt lat="45.4524" lon="4.12995">
        <ele>602.88</ele>
        <time>2024-04-28T08:10:12Z</time>
      </trkpt>
      <trkpt lat="45.45265" lon="4.13013">
        <ele>600.96</ele>
        <time>2024-04-28T08:09:59Z</time>
      </trkpt>
      <trkpt lat="45.45288" lon="4.13038">
        <ele>594.71</ele>
        <time>2024-04-28T08:09:40Z</time>
      </trkpt>
      <trkpt lat="45.45304" lon="4.13072">
        <ele>594.23</ele>
        <time>2024-04-28T08:09:21Z</time>
      </trkpt>
      <trkpt lat="45.45317" lon="4.13103">
        <ele>594.23</ele>
        <time>2024-04-28T08:09:03Z</time>
      </trkpt>
      <trkpt lat="45.45337" lon="4.13132">
        <ele>592.79</ele>
        <time>2024-04-28T08:08:49Z</time>
      </trkpt>
      <trkpt lat="45.45354" lon="4.13154">
        <ele>590.87</ele>
        <time>2024-04-28T08:08:32Z</time>
      </trkpt>
      <trkpt lat="45.45372" lon="4.1318">
        <ele>588.46</ele>
        <time>2024-04-28T08:08:19Z</time>
      </trkpt>
      <trkpt lat="45.45388" lon="4.13204">
        <ele>587.98</ele>
        <time>2024-04-28T08:08:03Z</time>
      </trkpt>
      <trkpt lat="45.45402" lon="4.13232">
        <ele>588.95</ele>
        <time>2024-04-28T08:07:47Z</time>
      </trkpt>
      <trkpt lat="45.45422" lon="4.13263">
        <ele>590.87</ele>
        <time>2024-04-28T08:07:29Z</time>
      </trkpt>
      <trkpt lat="45.45436" lon="4.13297">
        <ele>590.87</ele>
        <time>2024-04-28T08:07:14Z</time>
      </trkpt>
      <trkpt lat="45.4546" lon="4.13324">
        <ele>583.66</ele>
        <time>2024-04-28T08:06:56Z</time>
      </trkpt>
      <trkpt lat="45.45467" lon="4.1333">
        <ele>580.77</ele>
        <time>2024-04-28T08:06:51Z</time>
      </trkpt>
      <trkpt lat="45.4547" lon="4.13338">
        <ele>578.37</ele>
        <time>2024-04-28T08:06:47Z</time>
      </trkpt>
      <trkpt lat="45.45481" lon="4.13369">
        <ele>577.41</ele>
        <time>2024-04-28T08:06:34Z</time>
      </trkpt>
      <trkpt lat="45.45482" lon="4.13371">
        <ele>577.41</ele>
        <time>2024-04-28T08:06:33Z</time>
      </trkpt>
      <trkpt lat="45.45504" lon="4.13401">
        <ele>575.49</ele>
        <time>2024-04-28T08:06:17Z</time>
      </trkpt>
      <trkpt lat="45.4551" lon="4.13424">
        <ele>576.93</ele>
        <time>2024-04-28T08:06:02Z</time>
      </trkpt>
      <trkpt lat="45.45518" lon="4.13454">
        <ele>575.97</ele>
        <time>2024-04-28T08:05:45Z</time>
      </trkpt>
      <trkpt lat="45.45533" lon="4.13484">
        <ele>575.01</ele>
        <time>2024-04-28T08:05:30Z</time>
      </trkpt>
      <trkpt lat="45.45561" lon="4.1351">
        <ele>579.33</ele>
        <time>2024-04-28T08:05:12Z</time>
      </trkpt>
      <trkpt lat="45.45588" lon="4.1353">
        <ele>582.22</ele>
        <time>2024-04-28T08:04:55Z</time>
      </trkpt>
      <trkpt lat="45.45611" lon="4.13545">
        <ele>581.25</ele>
        <time>2024-04-28T08:04:41Z</time>
      </trkpt>
      <trkpt lat="45.45637" lon="4.13553">
        <ele>582.22</ele>
        <time>2024-04-28T08:04:25Z</time>
      </trkpt>
      <trkpt lat="45.45662" lon="4.13569">
        <ele>583.66</ele>
        <time>2024-04-28T08:04:08Z</time>
      </trkpt>
      <trkpt lat="45.45686" lon="4.13585">
        <ele>579.33</ele>
        <time>2024-04-28T08:03:49Z</time>
      </trkpt>
      <trkpt lat="45.45706" lon="4.13627">
        <ele>572.6</ele>
        <time>2024-04-28T08:03:26Z</time>
      </trkpt>
      <trkpt lat="45.45709" lon="4.13658">
        <ele>567.8</ele>
        <time>2024-04-28T08:03:08Z</time>
      </trkpt>
      <trkpt lat="45.45719" lon="4.13678">
        <ele>566.83</ele>
        <time>2024-04-28T08:02:50Z</time>
      </trkpt>
      <trkpt lat="45.45722" lon="4.13682">
        <ele>567.8</ele>
        <time>2024-04-28T08:02:33Z</time>
      </trkpt>
      <trkpt lat="45.45723" lon="4.13682">
        <ele>567.8</ele>
        <time>2024-04-28T08:02:32Z</time>
      </trkpt>
      <trkpt lat="45.4572" lon="4.13685">
        <ele>566.83</ele>
        <time>2024-04-28T08:02:19Z</time>
      </trkpt>
      <trkpt lat="45.45704" lon="4.13682">
        <ele>570.2</ele>
        <time>2024-04-28T08:02:05Z</time>
      </trkpt>
      <trkpt lat="45.45688" lon="4.13662">
        <ele>573.56</ele>
        <time>2024-04-28T08:01:51Z</time>
      </trkpt>
      <trkpt lat="45.45656" lon="4.1364">
        <ele>566.35</ele>
        <time>2024-04-28T08:01:34Z</time>
      </trkpt>
      <trkpt lat="45.45639" lon="4.13625">
        <ele>569.24</ele>
        <time>2024-04-28T08:01:17Z</time>
      </trkpt>
      <trkpt lat="45.45624" lon="4.13614">
        <ele>570.68</ele>
        <time>2024-04-28T08:01:01Z</time>
      </trkpt>
      <trkpt lat="45.45587" lon="4.13594">
        <ele>572.6</ele>
        <time>2024-04-28T08:00:41Z</time>
      </trkpt>
      <trkpt lat="45.45575" lon="4.13579">
        <ele>581.73</ele>
        <time>2024-04-28T08:00:24Z</time>
      </trkpt>
      <trkpt lat="45.45561" lon="4.1357">
        <ele>587.02</ele>
        <time>2024-04-28T08:00:09Z</time>
      </trkpt>
      <trkpt lat="45.45542" lon="4.13564">
        <ele>589.91</ele>
        <time>2024-04-28T07:59:51Z</time>
      </trkpt>
      <trkpt lat="45.4552" lon="4.13545">
        <ele>589.43</ele>
        <time>2024-04-28T07:59:33Z</time>
      </trkpt>
      <trkpt lat="45.45494" lon="4.13516">
        <ele>591.35</ele>
        <time>2024-04-28T07:59:11Z</time>
      </trkpt>
      <trkpt lat="45.45474" lon="4.13494">
        <ele>596.15</ele>
        <time>2024-04-28T07:58:53Z</time>
      </trkpt>
      <trkpt lat="45.45453" lon="4.13481">
        <ele>598.08</ele>
        <time>2024-04-28T07:58:39Z</time>
      </trkpt>
      <trkpt lat="45.45442" lon="4.13472">
        <ele>598.56</ele>
        <time>2024-04-28T07:58:30Z</time>
      </trkpt>
      <trkpt lat="45.45419" lon="4.13469">
        <ele>601.44</ele>
        <time>2024-04-28T07:58:14Z</time>
      </trkpt>
      <trkpt lat="45.454" lon="4.13461">
        <ele>607.21</ele>
        <time>2024-04-28T07:57:58Z</time>
      </trkpt>
      <trkpt lat="45.45379" lon="4.13449">
        <ele>611.06</ele>
        <time>2024-04-28T07:57:41Z</time>
      </trkpt>
      <trkpt lat="45.4536" lon="4.13452">
        <ele>614.9</ele>
        <time>2024-04-28T07:57:23Z</time>
      </trkpt>
      <trkpt lat="45.45338" lon="4.13457">
        <ele>619.23</ele>
        <time>2024-04-28T07:57:06Z</time>
      </trkpt>
      <trkpt lat="45.45303" lon="4.13461">
        <ele>619.71</ele>
        <time>2024-04-28T07:56:47Z</time>
      </trkpt>
      <trkpt lat="45.45273" lon="4.13468">
        <ele>619.71</ele>
        <time>2024-04-28T07:56:24Z</time>
      </trkpt>
      <trkpt lat="45.4524" lon="4.13476">
        <ele>623.55</ele>
        <time>2024-04-28T07:56:01Z</time>
      </trkpt>
      <trkpt lat="45.4521" lon="4.13489">
        <ele>624.03</ele>
        <time>2024-04-28T07:55:40Z</time>
      </trkpt>
      <trkpt lat="45.45179" lon="4.13503">
        <ele>624.03</ele>
        <time>2024-04-28T07:55:19Z</time>
      </trkpt>
      <trkpt lat="45.45154" lon="4.13517">
        <ele>626.44</ele>
        <time>2024-04-28T07:55:00Z</time>
      </trkpt>
      <trkpt lat="45.45138" lon="4.13526">
        <ele>627.4</ele>
        <time>2024-04-28T07:54:42Z</time>
      </trkpt>
      <trkpt lat="45.45111" lon="4.13531">
        <ele>630.28</ele>
        <time>2024-04-28T07:54:24Z</time>
      </trkpt>
      <trkpt lat="45.45082" lon="4.13555">
        <ele>632.2</ele>
        <time>2024-04-28T07:54:02Z</time>
      </trkpt>
      <trkpt lat="45.45057" lon="4.13558">
        <ele>632.68</ele>
        <time>2024-04-28T07:53:45Z</time>
      </trkpt>
      <trkpt lat="45.45036" lon="4.13539">
        <ele>632.68</ele>
        <time>2024-04-28T07:53:29Z</time>
      </trkpt>
      <trkpt lat="45.4501" lon="4.13516">
        <ele>633.65</ele>
        <time>2024-04-28T07:53:12Z</time>
      </trkpt>
      <trkpt lat="45.44987" lon="4.13496">
        <ele>635.09</ele>
        <time>2024-04-28T07:52:53Z</time>
      </trkpt>
      <trkpt lat="45.44953" lon="4.13486">
        <ele>628.84</ele>
        <time>2024-04-28T07:52:32Z</time>
      </trkpt>
      <trkpt lat="45.44919" lon="4.13485">
        <ele>621.63</ele>
        <time>2024-04-28T07:52:14Z</time>
      </trkpt>
      <trkpt lat="45.44894" lon="4.13485">
        <ele>618.26</ele>
        <time>2024-04-28T07:51:59Z</time>
      </trkpt>
      <trkpt lat="45.44868" lon="4.13491">
        <ele>627.88</ele>
        <time>2024-04-28T07:51:40Z</time>
      </trkpt>
      <trkpt lat="45.44858" lon="4.13489">
        <ele>632.2</ele>
        <time>2024-04-28T07:51:35Z</time>
      </trkpt>
      <trkpt lat="45.44853" lon="4.13489">
        <ele>634.13</ele>
        <time>2024-04-28T07:51:33Z</time>
      </trkpt>
      <trkpt lat="45.44849" lon="4.13482">
        <ele>635.4</ele>
      </trkpt>
      <trkpt lat="45.44841" lon="4.13476">
        <ele>635.2</ele>
      </trkpt>
      <trkpt lat="45.4483" lon="4.13468">
        <ele>634.8</ele>
      </trkpt>
      <trkpt lat="45.44818" lon="4.13458">
        <ele>633.9</ele>
      </trkpt>
      <trkpt lat="45.44808" lon="4.13453">
        <ele>633</ele>
      </trkpt>
      <trkpt lat="45.44799" lon="4.13447">
        <ele>631.7</ele>
      </trkpt>
      <trkpt lat="45.4479" lon="4.13441">
        <ele>630.5</ele>
      </trkpt>
      <trkpt lat="45.44787" lon="4.13439">
        <ele>630.1</ele>
      </trkpt>
      <trkpt lat="45.44782" lon="4.13435">
        <ele>629.7</ele>
      </trkpt>
      <trkpt lat="45.44777" lon="4.13428">
        <ele>629.7</ele>
      </trkpt>
      <trkpt lat="45.44769" lon="4.13417">
        <ele>630</ele>
      </trkpt>
      <trkpt lat="45.4476" lon="4.13404">
        <ele>630.3</ele>
      </trkpt>
      <trkpt lat="45.44752" lon="4.13396">
        <ele>630.4</ele>
      </trkpt>
      <trkpt lat="45.4474" lon="4.13385">
        <ele>631.4</ele>
      </trkpt>
      <trkpt lat="45.44722" lon="4.13371">
        <ele>632.3</ele>
      </trkpt>
      <trkpt lat="45.44705" lon="4.13361">
        <ele>632.4</ele>
      </trkpt>
      <trkpt lat="45.44681" lon="4.13348">
        <ele>631.5</ele>
      </trkpt>
      <trkpt lat="45.44677" lon="4.13346">
        <ele>631.3</ele>
      </trkpt>
      <trkpt lat="45.44662" lon="4.13337">
        <ele>630.5</ele>
      </trkpt>
      <trkpt lat="45.44655" lon="4.13331">
        <ele>630.2</ele>
      </trkpt>
      <trkpt lat="45.4465" lon="4.13327">
        <ele>630</ele>
      </trkpt>
      <trkpt lat="45.4464" lon="4.13321">
        <ele>629.5</ele>
        <extensions>
          <visugpx:TrkExtension xmlns:visugpx="https://www.visugpx.com/editgpx/">
            <visugpx:node>2</visugpx:node>
            </visugpx:TrkExtension>
        </extensions>
      </trkpt>
      <trkpt lat="45.44637" lon="4.13318">
        <ele>629.4</ele>
      </trkpt>
      <trkpt lat="45.44637" lon="4.13309">
        <ele>629.7</ele>
      </trkpt>
      <trkpt lat="45.44633" lon="4.13268">
        <ele>628.5</ele>
      </trkpt>
      <trkpt lat="45.44632" lon="4.13254">
        <ele>628.3</ele>
      </trkpt>
      <trkpt lat="45.44631" lon="4.13238">
        <ele>628.5</ele>
      </trkpt>
      <trkpt lat="45.4463" lon="4.13222">
        <ele>628.7</ele>
      </trkpt>
      <trkpt lat="45.44629" lon="4.13217">
        <ele>628.8</ele>
      </trkpt>
      <trkpt lat="45.44626" lon="4.13212">
        <ele>628.5</ele>
      </trkpt>
      <trkpt lat="45.44622" lon="4.13203">
        <ele>628.3</ele>
      </trkpt>
      <trkpt lat="45.44595" lon="4.13163">
        <ele>626.9</ele>
      </trkpt>
      <trkpt lat="45.44589" lon="4.13156">
        <ele>626.5</ele>
      </trkpt>
      <trkpt lat="45.44589" lon="4.13148">
        <ele>627</ele>
      </trkpt>
      <trkpt lat="45.44584" lon="4.13132">
        <ele>627.6</ele>
      </trkpt>
      <trkpt lat="45.44582" lon="4.13123">
        <ele>628</ele>
      </trkpt>
      <trkpt lat="45.44582" lon="4.13122">
        <ele>628.1</ele>
      </trkpt>
      <trkpt lat="45.44581" lon="4.13118">
        <ele>628.3</ele>
      </trkpt>
      <trkpt lat="45.44581" lon="4.1311">
        <ele>628.7</ele>
      </trkpt>
      <trkpt lat="45.44582" lon="4.13108">
        <ele>628.9</ele>
        <extensions>
          <visugpx:TrkExtension xmlns:visugpx="https://www.visugpx.com/editgpx/">
            <visugpx:node>3</visugpx:node>
            </visugpx:TrkExtension>
        </extensions>
      </trkpt>
    </trkseg>
  </trk>
</gpx>